<?xml version="1.0" encoding="utf-8"?>
<gpx xmlns:xsi="http://www.w3.org/2001/XMLSchema-instance" xmlns:xsd="http://www.w3.org/2001/XMLSchema" version="1.1" creator="Shapelink.com" xmlns="http://www.topografix.com/GPX/1/1" xmlns:gpxtpx="http://www.garmin.com/xmlschemas/TrackPointExtension/v1">
  <metadata>
    <name>Løping 10.83 km, 2012-09-16</name>
    <desc></desc>
    <author><name>Mikael Blom</name></author> 
    <time>2012-09-16T10:59:08Z</time>
  </metadata>
  <trk>
    <name>Løping 10.83 km, 2012-09-16</name>
    <trkseg>
      <trkpt lat="59.9528982" lon="17.7167236">
        <ele>49.6453</ele>
        <time>2012-09-16T10:59:08Z</time>
      </trkpt>
      <trkpt lat="59.9529377" lon="17.7170258">
        <ele>59.7391</ele>
        <time>2012-09-16T10:59:14Z</time>
      </trkpt>
      <trkpt lat="59.9529392" lon="17.7172424">
        <ele>65.9877</ele>
        <time>2012-09-16T10:59:18Z</time>
      </trkpt>
      <trkpt lat="59.9529035" lon="17.7174103">
        <ele>68.3909</ele>
        <time>2012-09-16T10:59:22Z</time>
      </trkpt>
      <trkpt lat="59.9528144" lon="17.7176066">
        <ele>68.8716</ele>
        <time>2012-09-16T10:59:26Z</time>
      </trkpt>
      <trkpt lat="59.9527025" lon="17.7178134">
        <ele>64.5457</ele>
        <time>2012-09-16T10:59:31Z</time>
      </trkpt>
      <trkpt lat="59.9525978" lon="17.7180179">
        <ele>60.7003</ele>
        <time>2012-09-16T10:59:36Z</time>
      </trkpt>
      <trkpt lat="59.9525524" lon="17.7181993">
        <ele>57.8165</ele>
        <time>2012-09-16T10:59:41Z</time>
      </trkpt>
      <trkpt lat="59.9525321" lon="17.7183972">
        <ele>54.4518</ele>
        <time>2012-09-16T10:59:46Z</time>
      </trkpt>
      <trkpt lat="59.9524901" lon="17.7186527">
        <ele>52.0486</ele>
        <time>2012-09-16T10:59:51Z</time>
      </trkpt>
      <trkpt lat="59.9524762" lon="17.7188068">
        <ele>51.5679</ele>
        <time>2012-09-16T10:59:55Z</time>
      </trkpt>
      <trkpt lat="59.9524259" lon="17.7189538">
        <ele>52.5292</ele>
        <time>2012-09-16T10:59:59Z</time>
      </trkpt>
      <trkpt lat="59.9523995" lon="17.7191945">
        <ele>52.5292</ele>
        <time>2012-09-16T11:00:04Z</time>
      </trkpt>
      <trkpt lat="59.9524181" lon="17.719276">
        <ele>54.4518</ele>
        <time>2012-09-16T11:00:06Z</time>
      </trkpt>
      <trkpt lat="59.9524459" lon="17.7193356">
        <ele>55.8938</ele>
        <time>2012-09-16T11:00:08Z</time>
      </trkpt>
      <trkpt lat="59.952419" lon="17.7196533">
        <ele>55.8938</ele>
        <time>2012-09-16T11:00:13Z</time>
      </trkpt>
      <trkpt lat="59.9524217" lon="17.7197104">
        <ele>56.3745</ele>
        <time>2012-09-16T11:00:14Z</time>
      </trkpt>
      <trkpt lat="59.9524423" lon="17.7198458">
        <ele>55.8938</ele>
        <time>2012-09-16T11:00:17Z</time>
      </trkpt>
      <trkpt lat="59.9525176" lon="17.72003">
        <ele>56.8551</ele>
        <time>2012-09-16T11:00:22Z</time>
      </trkpt>
      <trkpt lat="59.9526073" lon="17.7202718">
        <ele>61.6617</ele>
        <time>2012-09-16T11:00:28Z</time>
      </trkpt>
      <trkpt lat="59.9526187" lon="17.7203147">
        <ele>62.1423</ele>
        <time>2012-09-16T11:00:29Z</time>
      </trkpt>
      <trkpt lat="59.9526155" lon="17.720635">
        <ele>65.9877</ele>
        <time>2012-09-16T11:00:35Z</time>
      </trkpt>
      <trkpt lat="59.952645" lon="17.7208407">
        <ele>71.7555</ele>
        <time>2012-09-16T11:00:39Z</time>
      </trkpt>
      <trkpt lat="59.9526368" lon="17.7209969">
        <ele>67.9103</ele>
        <time>2012-09-16T11:00:43Z</time>
      </trkpt>
      <trkpt lat="59.9526289" lon="17.7211609">
        <ele>65.9877</ele>
        <time>2012-09-16T11:00:47Z</time>
      </trkpt>
      <trkpt lat="59.9525778" lon="17.7214543">
        <ele>65.5071</ele>
        <time>2012-09-16T11:00:52Z</time>
      </trkpt>
      <trkpt lat="59.9525723" lon="17.7216451">
        <ele>63.1036</ele>
        <time>2012-09-16T11:00:56Z</time>
      </trkpt>
      <trkpt lat="59.9525798" lon="17.7218441">
        <ele>57.3358</ele>
        <time>2012-09-16T11:01:01Z</time>
      </trkpt>
      <trkpt lat="59.9525909" lon="17.7220993">
        <ele>53.9712</ele>
        <time>2012-09-16T11:01:06Z</time>
      </trkpt>
      <trkpt lat="59.9525518" lon="17.7222906">
        <ele>53.4905</ele>
        <time>2012-09-16T11:01:10Z</time>
      </trkpt>
      <trkpt lat="59.9524988" lon="17.7225159">
        <ele>53.9712</ele>
        <time>2012-09-16T11:01:15Z</time>
      </trkpt>
      <trkpt lat="59.952484" lon="17.7226356">
        <ele>54.4518</ele>
        <time>2012-09-16T11:01:18Z</time>
      </trkpt>
      <trkpt lat="59.9524829" lon="17.7228498">
        <ele>53.9712</ele>
        <time>2012-09-16T11:01:22Z</time>
      </trkpt>
      <trkpt lat="59.9524969" lon="17.7231339">
        <ele>49.1646</ele>
        <time>2012-09-16T11:01:28Z</time>
      </trkpt>
      <trkpt lat="59.9525119" lon="17.7232203">
        <ele>49.1646</ele>
        <time>2012-09-16T11:01:30Z</time>
      </trkpt>
      <trkpt lat="59.9525598" lon="17.7234364">
        <ele>46.2806</ele>
        <time>2012-09-16T11:01:35Z</time>
      </trkpt>
      <trkpt lat="59.9526305" lon="17.7236302">
        <ele>43.3966</ele>
        <time>2012-09-16T11:01:40Z</time>
      </trkpt>
      <trkpt lat="59.9526849" lon="17.7238057">
        <ele>41.474</ele>
        <time>2012-09-16T11:01:44Z</time>
      </trkpt>
      <trkpt lat="59.9527005" lon="17.7238409">
        <ele>40.5128</ele>
        <time>2012-09-16T11:01:45Z</time>
      </trkpt>
      <trkpt lat="59.9526963" lon="17.7240664">
        <ele>39.5513</ele>
        <time>2012-09-16T11:01:50Z</time>
      </trkpt>
      <trkpt lat="59.9526368" lon="17.7242347">
        <ele>39.5513</ele>
        <time>2012-09-16T11:01:54Z</time>
      </trkpt>
      <trkpt lat="59.9525723" lon="17.7243785">
        <ele>38.5901</ele>
        <time>2012-09-16T11:01:57Z</time>
      </trkpt>
      <trkpt lat="59.952513" lon="17.724544">
        <ele>40.5128</ele>
        <time>2012-09-16T11:02:01Z</time>
      </trkpt>
      <trkpt lat="59.9524937" lon="17.7245965">
        <ele>40.5128</ele>
        <time>2012-09-16T11:02:02Z</time>
      </trkpt>
      <trkpt lat="59.9524016" lon="17.7247345">
        <ele>40.9934</ele>
        <time>2012-09-16T11:02:06Z</time>
      </trkpt>
      <trkpt lat="59.9522993" lon="17.72488">
        <ele>42.916</ele>
        <time>2012-09-16T11:02:11Z</time>
      </trkpt>
      <trkpt lat="59.9522077" lon="17.7250872">
        <ele>43.3966</ele>
        <time>2012-09-16T11:02:16Z</time>
      </trkpt>
      <trkpt lat="59.9521403" lon="17.7252391">
        <ele>45.7999</ele>
        <time>2012-09-16T11:02:20Z</time>
      </trkpt>
      <trkpt lat="59.9520633" lon="17.7253868">
        <ele>47.2418</ele>
        <time>2012-09-16T11:02:24Z</time>
      </trkpt>
      <trkpt lat="59.9519861" lon="17.7255686">
        <ele>48.684</ele>
        <time>2012-09-16T11:02:29Z</time>
      </trkpt>
      <trkpt lat="59.9519503" lon="17.7256515">
        <ele>48.684</ele>
        <time>2012-09-16T11:02:31Z</time>
      </trkpt>
      <trkpt lat="59.9518757" lon="17.7258139">
        <ele>50.126</ele>
        <time>2012-09-16T11:02:36Z</time>
      </trkpt>
      <trkpt lat="59.951844" lon="17.7258771">
        <ele>50.126</ele>
        <time>2012-09-16T11:02:38Z</time>
      </trkpt>
      <trkpt lat="59.9517833" lon="17.725944">
        <ele>51.0872</ele>
        <time>2012-09-16T11:02:41Z</time>
      </trkpt>
      <trkpt lat="59.9516778" lon="17.7260466">
        <ele>50.6066</ele>
        <time>2012-09-16T11:02:46Z</time>
      </trkpt>
      <trkpt lat="59.9516396" lon="17.7261241">
        <ele>51.0872</ele>
        <time>2012-09-16T11:02:48Z</time>
      </trkpt>
      <trkpt lat="59.9515821" lon="17.726212">
        <ele>51.5679</ele>
        <time>2012-09-16T11:02:51Z</time>
      </trkpt>
      <trkpt lat="59.9514944" lon="17.7264648">
        <ele>51.5679</ele>
        <time>2012-09-16T11:02:57Z</time>
      </trkpt>
      <trkpt lat="59.9514499" lon="17.7266036">
        <ele>51.0872</ele>
        <time>2012-09-16T11:03:01Z</time>
      </trkpt>
      <trkpt lat="59.9513977" lon="17.7268032">
        <ele>51.5679</ele>
        <time>2012-09-16T11:03:06Z</time>
      </trkpt>
      <trkpt lat="59.9514256" lon="17.7270144">
        <ele>49.6453</ele>
        <time>2012-09-16T11:03:11Z</time>
      </trkpt>
      <trkpt lat="59.9514406" lon="17.7271381">
        <ele>47.2418</ele>
        <time>2012-09-16T11:03:14Z</time>
      </trkpt>
      <trkpt lat="59.9514375" lon="17.7274163">
        <ele>44.8386</ele>
        <time>2012-09-16T11:03:19Z</time>
      </trkpt>
      <trkpt lat="59.9514922" lon="17.7276922">
        <ele>47.2418</ele>
        <time>2012-09-16T11:03:23Z</time>
      </trkpt>
      <trkpt lat="59.9515404" lon="17.727831">
        <ele>44.8386</ele>
        <time>2012-09-16T11:03:27Z</time>
      </trkpt>
      <trkpt lat="59.951644" lon="17.7279196">
        <ele>42.4354</ele>
        <time>2012-09-16T11:03:32Z</time>
      </trkpt>
      <trkpt lat="59.951754" lon="17.7279364">
        <ele>40.9934</ele>
        <time>2012-09-16T11:03:37Z</time>
      </trkpt>
      <trkpt lat="59.95185" lon="17.7279125">
        <ele>43.3966</ele>
        <time>2012-09-16T11:03:41Z</time>
      </trkpt>
      <trkpt lat="59.9518623" lon="17.7279056">
        <ele>44.358</ele>
        <time>2012-09-16T11:03:42Z</time>
      </trkpt>
      <trkpt lat="59.9518735" lon="17.7278737">
        <ele>45.3192</ele>
        <time>2012-09-16T11:03:44Z</time>
      </trkpt>
      <trkpt lat="59.9519126" lon="17.7277452">
        <ele>47.2418</ele>
        <time>2012-09-16T11:03:48Z</time>
      </trkpt>
      <trkpt lat="59.9519211" lon="17.7275371">
        <ele>52.0486</ele>
        <time>2012-09-16T11:03:52Z</time>
      </trkpt>
      <trkpt lat="59.9519814" lon="17.7273049">
        <ele>52.5292</ele>
        <time>2012-09-16T11:03:57Z</time>
      </trkpt>
      <trkpt lat="59.9520063" lon="17.7270933">
        <ele>56.3745</ele>
        <time>2012-09-16T11:04:02Z</time>
      </trkpt>
      <trkpt lat="59.9520584" lon="17.726877">
        <ele>56.8551</ele>
        <time>2012-09-16T11:04:07Z</time>
      </trkpt>
      <trkpt lat="59.9521116" lon="17.7266672">
        <ele>56.8551</ele>
        <time>2012-09-16T11:04:12Z</time>
      </trkpt>
      <trkpt lat="59.952212" lon="17.7264351">
        <ele>56.3745</ele>
        <time>2012-09-16T11:04:18Z</time>
      </trkpt>
      <trkpt lat="59.9523107" lon="17.7262298">
        <ele>54.4518</ele>
        <time>2012-09-16T11:04:23Z</time>
      </trkpt>
      <trkpt lat="59.9523932" lon="17.7260731">
        <ele>53.4905</ele>
        <time>2012-09-16T11:04:27Z</time>
      </trkpt>
      <trkpt lat="59.9524921" lon="17.7259109">
        <ele>50.126</ele>
        <time>2012-09-16T11:04:32Z</time>
      </trkpt>
      <trkpt lat="59.9525932" lon="17.7258058">
        <ele>45.7999</ele>
        <time>2012-09-16T11:04:37Z</time>
      </trkpt>
      <trkpt lat="59.9526563" lon="17.7257037">
        <ele>42.916</ele>
        <time>2012-09-16T11:04:41Z</time>
      </trkpt>
      <trkpt lat="59.952747" lon="17.7254802">
        <ele>42.4354</ele>
        <time>2012-09-16T11:04:47Z</time>
      </trkpt>
      <trkpt lat="59.9527684" lon="17.7254384">
        <ele>41.9547</ele>
        <time>2012-09-16T11:04:48Z</time>
      </trkpt>
      <trkpt lat="59.9528567" lon="17.7252839">
        <ele>40.5128</ele>
        <time>2012-09-16T11:04:53Z</time>
      </trkpt>
      <trkpt lat="59.9529397" lon="17.7251748">
        <ele>39.0707</ele>
        <time>2012-09-16T11:04:57Z</time>
      </trkpt>
      <trkpt lat="59.9530325" lon="17.7250696">
        <ele>36.1868</ele>
        <time>2012-09-16T11:05:02Z</time>
      </trkpt>
      <trkpt lat="59.9531199" lon="17.7249614">
        <ele>32.8223</ele>
        <time>2012-09-16T11:05:07Z</time>
      </trkpt>
      <trkpt lat="59.9532037" lon="17.7248312">
        <ele>31.8607</ele>
        <time>2012-09-16T11:05:12Z</time>
      </trkpt>
      <trkpt lat="59.953279" lon="17.7247136">
        <ele>31.8607</ele>
        <time>2012-09-16T11:05:16Z</time>
      </trkpt>
      <trkpt lat="59.9532986" lon="17.7246996">
        <ele>31.3801</ele>
        <time>2012-09-16T11:05:17Z</time>
      </trkpt>
      <trkpt lat="59.9533586" lon="17.7245318">
        <ele>32.3416</ele>
        <time>2012-09-16T11:05:21Z</time>
      </trkpt>
      <trkpt lat="59.9534814" lon="17.7242693">
        <ele>38.1094</ele>
        <time>2012-09-16T11:05:27Z</time>
      </trkpt>
      <trkpt lat="59.9535696" lon="17.724114">
        <ele>40.0321</ele>
        <time>2012-09-16T11:05:33Z</time>
      </trkpt>
      <trkpt lat="59.9535939" lon="17.724092">
        <ele>40.5128</ele>
        <time>2012-09-16T11:05:34Z</time>
      </trkpt>
      <trkpt lat="59.9536903" lon="17.7239067">
        <ele>43.3966</ele>
        <time>2012-09-16T11:05:40Z</time>
      </trkpt>
      <trkpt lat="59.9537938" lon="17.7237097">
        <ele>45.3192</ele>
        <time>2012-09-16T11:05:45Z</time>
      </trkpt>
      <trkpt lat="59.9538928" lon="17.7236085">
        <ele>46.7612</ele>
        <time>2012-09-16T11:05:49Z</time>
      </trkpt>
      <trkpt lat="59.9539872" lon="17.7234507">
        <ele>45.3192</ele>
        <time>2012-09-16T11:05:54Z</time>
      </trkpt>
      <trkpt lat="59.9540928" lon="17.7233178">
        <ele>47.2418</ele>
        <time>2012-09-16T11:05:59Z</time>
      </trkpt>
      <trkpt lat="59.9542006" lon="17.7232168">
        <ele>49.6453</ele>
        <time>2012-09-16T11:06:03Z</time>
      </trkpt>
      <trkpt lat="59.9543519" lon="17.723208">
        <ele>54.9324</ele>
        <time>2012-09-16T11:06:08Z</time>
      </trkpt>
      <trkpt lat="59.9544796" lon="17.7232768">
        <ele>60.2197</ele>
        <time>2012-09-16T11:06:12Z</time>
      </trkpt>
      <trkpt lat="59.9545873" lon="17.7234182">
        <ele>57.8165</ele>
        <time>2012-09-16T11:06:18Z</time>
      </trkpt>
      <trkpt lat="59.9546879" lon="17.7234866">
        <ele>55.8938</ele>
        <time>2012-09-16T11:06:23Z</time>
      </trkpt>
      <trkpt lat="59.9547324" lon="17.7235282">
        <ele>55.4131</ele>
        <time>2012-09-16T11:06:25Z</time>
      </trkpt>
      <trkpt lat="59.9548418" lon="17.7236147">
        <ele>53.4905</ele>
        <time>2012-09-16T11:06:30Z</time>
      </trkpt>
      <trkpt lat="59.9548647" lon="17.7236306">
        <ele>53.0098</ele>
        <time>2012-09-16T11:06:31Z</time>
      </trkpt>
      <trkpt lat="59.9550066" lon="17.723685">
        <ele>53.9712</ele>
        <time>2012-09-16T11:06:36Z</time>
      </trkpt>
      <trkpt lat="59.9550754" lon="17.7236866">
        <ele>53.0098</ele>
        <time>2012-09-16T11:06:39Z</time>
      </trkpt>
      <trkpt lat="59.9552128" lon="17.7235813">
        <ele>53.0098</ele>
        <time>2012-09-16T11:06:45Z</time>
      </trkpt>
      <trkpt lat="59.9552903" lon="17.7235089">
        <ele>50.6066</ele>
        <time>2012-09-16T11:06:49Z</time>
      </trkpt>
      <trkpt lat="59.9553703" lon="17.7234327">
        <ele>53.4905</ele>
        <time>2012-09-16T11:06:53Z</time>
      </trkpt>
      <trkpt lat="59.955478" lon="17.7234339">
        <ele>53.9712</ele>
        <time>2012-09-16T11:06:58Z</time>
      </trkpt>
      <trkpt lat="59.9555862" lon="17.7234973">
        <ele>53.0098</ele>
        <time>2012-09-16T11:07:03Z</time>
      </trkpt>
      <trkpt lat="59.955751" lon="17.7236423">
        <ele>53.4905</ele>
        <time>2012-09-16T11:07:09Z</time>
      </trkpt>
      <trkpt lat="59.9558137" lon="17.7237048">
        <ele>52.5292</ele>
        <time>2012-09-16T11:07:13Z</time>
      </trkpt>
      <trkpt lat="59.9558427" lon="17.7237444">
        <ele>52.5292</ele>
        <time>2012-09-16T11:07:15Z</time>
      </trkpt>
      <trkpt lat="59.955952" lon="17.7236846">
        <ele>49.1646</ele>
        <time>2012-09-16T11:07:20Z</time>
      </trkpt>
      <trkpt lat="59.9560139" lon="17.7235592">
        <ele>47.2418</ele>
        <time>2012-09-16T11:07:24Z</time>
      </trkpt>
      <trkpt lat="59.956057" lon="17.7233027">
        <ele>47.2418</ele>
        <time>2012-09-16T11:07:29Z</time>
      </trkpt>
      <trkpt lat="59.9560602" lon="17.7231137">
        <ele>47.7225</ele>
        <time>2012-09-16T11:07:33Z</time>
      </trkpt>
      <trkpt lat="59.9560504" lon="17.7229293">
        <ele>48.2034</ele>
        <time>2012-09-16T11:07:37Z</time>
      </trkpt>
      <trkpt lat="59.9560395" lon="17.7228826">
        <ele>48.2034</ele>
        <time>2012-09-16T11:07:38Z</time>
      </trkpt>
      <trkpt lat="59.9559888" lon="17.7226599">
        <ele>48.2034</ele>
        <time>2012-09-16T11:07:43Z</time>
      </trkpt>
      <trkpt lat="59.9559119" lon="17.7224164">
        <ele>49.6453</ele>
        <time>2012-09-16T11:07:48Z</time>
      </trkpt>
      <trkpt lat="59.9558986" lon="17.7223598">
        <ele>50.126</ele>
        <time>2012-09-16T11:07:49Z</time>
      </trkpt>
      <trkpt lat="59.9559277" lon="17.722121">
        <ele>54.4518</ele>
        <time>2012-09-16T11:07:54Z</time>
      </trkpt>
      <trkpt lat="59.9559199" lon="17.7220835">
        <ele>54.9324</ele>
        <time>2012-09-16T11:07:55Z</time>
      </trkpt>
      <trkpt lat="59.9558923" lon="17.721815">
        <ele>58.7777</ele>
        <time>2012-09-16T11:08:00Z</time>
      </trkpt>
      <trkpt lat="59.9558928" lon="17.7217662">
        <ele>59.2584</ele>
        <time>2012-09-16T11:08:01Z</time>
      </trkpt>
      <trkpt lat="59.9559215" lon="17.7216167">
        <ele>60.2197</ele>
        <time>2012-09-16T11:08:04Z</time>
      </trkpt>
      <trkpt lat="59.9559381" lon="17.7214379">
        <ele>59.7391</ele>
        <time>2012-09-16T11:08:08Z</time>
      </trkpt>
      <trkpt lat="59.9559367" lon="17.7213047">
        <ele>58.2971</ele>
        <time>2012-09-16T11:08:12Z</time>
      </trkpt>
      <trkpt lat="59.955865" lon="17.7211795">
        <ele>58.7777</ele>
        <time>2012-09-16T11:08:17Z</time>
      </trkpt>
      <trkpt lat="59.9558453" lon="17.7211623">
        <ele>58.2971</ele>
        <time>2012-09-16T11:08:18Z</time>
      </trkpt>
      <trkpt lat="59.9557501" lon="17.7211881">
        <ele>55.4131</ele>
        <time>2012-09-16T11:08:24Z</time>
      </trkpt>
      <trkpt lat="59.9557074" lon="17.721232">
        <ele>55.4131</ele>
        <time>2012-09-16T11:08:26Z</time>
      </trkpt>
      <trkpt lat="59.9555567" lon="17.7213223">
        <ele>55.4131</ele>
        <time>2012-09-16T11:08:32Z</time>
      </trkpt>
      <trkpt lat="59.9554135" lon="17.721336">
        <ele>57.3358</ele>
        <time>2012-09-16T11:08:36Z</time>
      </trkpt>
      <trkpt lat="59.9552558" lon="17.7213213">
        <ele>60.7003</ele>
        <time>2012-09-16T11:08:41Z</time>
      </trkpt>
      <trkpt lat="59.95511" lon="17.7213125">
        <ele>57.8165</ele>
        <time>2012-09-16T11:08:47Z</time>
      </trkpt>
      <trkpt lat="59.9550911" lon="17.7213061">
        <ele>57.3358</ele>
        <time>2012-09-16T11:08:48Z</time>
      </trkpt>
      <trkpt lat="59.9549998" lon="17.7213162">
        <ele>57.3358</ele>
        <time>2012-09-16T11:08:53Z</time>
      </trkpt>
      <trkpt lat="59.9549434" lon="17.7212714">
        <ele>58.2971</ele>
        <time>2012-09-16T11:08:56Z</time>
      </trkpt>
      <trkpt lat="59.9548221" lon="17.7211961">
        <ele>59.2584</ele>
        <time>2012-09-16T11:09:00Z</time>
      </trkpt>
      <trkpt lat="59.9547321" lon="17.7210029">
        <ele>61.6617</ele>
        <time>2012-09-16T11:09:04Z</time>
      </trkpt>
      <trkpt lat="59.9547362" lon="17.7207726">
        <ele>61.6617</ele>
        <time>2012-09-16T11:09:08Z</time>
      </trkpt>
      <trkpt lat="59.9547611" lon="17.72058">
        <ele>60.2197</ele>
        <time>2012-09-16T11:09:12Z</time>
      </trkpt>
      <trkpt lat="59.9548533" lon="17.720404">
        <ele>59.2584</ele>
        <time>2012-09-16T11:09:17Z</time>
      </trkpt>
      <trkpt lat="59.9549698" lon="17.7202874">
        <ele>56.3745</ele>
        <time>2012-09-16T11:09:22Z</time>
      </trkpt>
      <trkpt lat="59.9550693" lon="17.720223">
        <ele>55.4131</ele>
        <time>2012-09-16T11:09:27Z</time>
      </trkpt>
      <trkpt lat="59.9551807" lon="17.7201345">
        <ele>53.9712</ele>
        <time>2012-09-16T11:09:32Z</time>
      </trkpt>
      <trkpt lat="59.955262" lon="17.7200528">
        <ele>52.5292</ele>
        <time>2012-09-16T11:09:36Z</time>
      </trkpt>
      <trkpt lat="59.9553488" lon="17.7199743">
        <ele>53.4905</ele>
        <time>2012-09-16T11:09:40Z</time>
      </trkpt>
      <trkpt lat="59.95542" lon="17.7198837">
        <ele>53.4905</ele>
        <time>2012-09-16T11:09:45Z</time>
      </trkpt>
      <trkpt lat="59.9554889" lon="17.7198138">
        <ele>53.9712</ele>
        <time>2012-09-16T11:09:49Z</time>
      </trkpt>
      <trkpt lat="59.9556162" lon="17.7197248">
        <ele>57.8165</ele>
        <time>2012-09-16T11:09:55Z</time>
      </trkpt>
      <trkpt lat="59.9557244" lon="17.7195756">
        <ele>60.7003</ele>
        <time>2012-09-16T11:10:00Z</time>
      </trkpt>
      <trkpt lat="59.9558505" lon="17.7194242">
        <ele>62.6229</ele>
        <time>2012-09-16T11:10:06Z</time>
      </trkpt>
      <trkpt lat="59.9559704" lon="17.7193199">
        <ele>61.6617</ele>
        <time>2012-09-16T11:10:11Z</time>
      </trkpt>
      <trkpt lat="59.9560678" lon="17.7191679">
        <ele>61.6617</ele>
        <time>2012-09-16T11:10:16Z</time>
      </trkpt>
      <trkpt lat="59.9561373" lon="17.7190526">
        <ele>61.181</ele>
        <time>2012-09-16T11:10:20Z</time>
      </trkpt>
      <trkpt lat="59.9561809" lon="17.7189318">
        <ele>60.7003</ele>
        <time>2012-09-16T11:10:24Z</time>
      </trkpt>
      <trkpt lat="59.9561917" lon="17.7187125">
        <ele>60.2197</ele>
        <time>2012-09-16T11:10:29Z</time>
      </trkpt>
      <trkpt lat="59.9561867" lon="17.7186707">
        <ele>60.2197</ele>
        <time>2012-09-16T11:10:30Z</time>
      </trkpt>
      <trkpt lat="59.9561607" lon="17.7184992">
        <ele>59.7391</ele>
        <time>2012-09-16T11:10:34Z</time>
      </trkpt>
      <trkpt lat="59.9560769" lon="17.7183117">
        <ele>59.7391</ele>
        <time>2012-09-16T11:10:39Z</time>
      </trkpt>
      <trkpt lat="59.956025" lon="17.7181628">
        <ele>60.2197</ele>
        <time>2012-09-16T11:10:43Z</time>
      </trkpt>
      <trkpt lat="59.955943" lon="17.7180128">
        <ele>59.7391</ele>
        <time>2012-09-16T11:10:47Z</time>
      </trkpt>
      <trkpt lat="59.9558616" lon="17.717831">
        <ele>58.2971</ele>
        <time>2012-09-16T11:10:52Z</time>
      </trkpt>
      <trkpt lat="59.9557883" lon="17.7176265">
        <ele>57.3358</ele>
        <time>2012-09-16T11:10:57Z</time>
      </trkpt>
      <trkpt lat="59.9557307" lon="17.7174306">
        <ele>57.3358</ele>
        <time>2012-09-16T11:11:02Z</time>
      </trkpt>
      <trkpt lat="59.9556397" lon="17.7172463">
        <ele>55.4131</ele>
        <time>2012-09-16T11:11:07Z</time>
      </trkpt>
      <trkpt lat="59.9555869" lon="17.7170886">
        <ele>53.0098</ele>
        <time>2012-09-16T11:11:11Z</time>
      </trkpt>
      <trkpt lat="59.9555552" lon="17.7168748">
        <ele>50.6066</ele>
        <time>2012-09-16T11:11:15Z</time>
      </trkpt>
      <trkpt lat="59.9555464" lon="17.7168342">
        <ele>51.0872</ele>
        <time>2012-09-16T11:11:16Z</time>
      </trkpt>
      <trkpt lat="59.9555215" lon="17.7167539">
        <ele>50.126</ele>
        <time>2012-09-16T11:11:18Z</time>
      </trkpt>
      <trkpt lat="59.9555078" lon="17.716554">
        <ele>51.0872</ele>
        <time>2012-09-16T11:11:22Z</time>
      </trkpt>
      <trkpt lat="59.9555127" lon="17.7162971">
        <ele>49.1646</ele>
        <time>2012-09-16T11:11:27Z</time>
      </trkpt>
      <trkpt lat="59.9555096" lon="17.71626">
        <ele>49.1646</ele>
        <time>2012-09-16T11:11:28Z</time>
      </trkpt>
      <trkpt lat="59.9554566" lon="17.716021">
        <ele>48.2034</ele>
        <time>2012-09-16T11:11:33Z</time>
      </trkpt>
      <trkpt lat="59.9554345" lon="17.7157435">
        <ele>46.7612</ele>
        <time>2012-09-16T11:11:38Z</time>
      </trkpt>
      <trkpt lat="59.9554319" lon="17.7155438">
        <ele>46.2806</ele>
        <time>2012-09-16T11:11:42Z</time>
      </trkpt>
      <trkpt lat="59.9554242" lon="17.7154104">
        <ele>46.2806</ele>
        <time>2012-09-16T11:11:45Z</time>
      </trkpt>
      <trkpt lat="59.9554298" lon="17.7151757">
        <ele>45.7999</ele>
        <time>2012-09-16T11:11:50Z</time>
      </trkpt>
      <trkpt lat="59.955409" lon="17.7150172">
        <ele>44.8386</ele>
        <time>2012-09-16T11:11:54Z</time>
      </trkpt>
      <trkpt lat="59.9553883" lon="17.7148462">
        <ele>43.3966</ele>
        <time>2012-09-16T11:11:58Z</time>
      </trkpt>
      <trkpt lat="59.9553296" lon="17.7145722">
        <ele>41.9547</ele>
        <time>2012-09-16T11:12:04Z</time>
      </trkpt>
      <trkpt lat="59.955279" lon="17.7143868">
        <ele>40.5128</ele>
        <time>2012-09-16T11:12:08Z</time>
      </trkpt>
      <trkpt lat="59.9552475" lon="17.7141594">
        <ele>39.0707</ele>
        <time>2012-09-16T11:12:13Z</time>
      </trkpt>
      <trkpt lat="59.9552128" lon="17.714063">
        <ele>38.5901</ele>
        <time>2012-09-16T11:12:16Z</time>
      </trkpt>
      <trkpt lat="59.9551656" lon="17.714122">
        <ele>37.1481</ele>
        <time>2012-09-16T11:12:19Z</time>
      </trkpt>
      <trkpt lat="59.955095" lon="17.7142702">
        <ele>37.6287</ele>
        <time>2012-09-16T11:12:24Z</time>
      </trkpt>
      <trkpt lat="59.9550598" lon="17.7143107">
        <ele>37.1481</ele>
        <time>2012-09-16T11:12:26Z</time>
      </trkpt>
      <trkpt lat="59.9550206" lon="17.7143924">
        <ele>38.1094</ele>
        <time>2012-09-16T11:12:28Z</time>
      </trkpt>
      <trkpt lat="59.9548984" lon="17.7145774">
        <ele>38.5901</ele>
        <time>2012-09-16T11:12:33Z</time>
      </trkpt>
      <trkpt lat="59.9548728" lon="17.714625">
        <ele>39.5513</ele>
        <time>2012-09-16T11:12:34Z</time>
      </trkpt>
      <trkpt lat="59.95473" lon="17.7147716">
        <ele>39.0707</ele>
        <time>2012-09-16T11:12:40Z</time>
      </trkpt>
      <trkpt lat="59.9546643" lon="17.714766">
        <ele>40.5128</ele>
        <time>2012-09-16T11:12:43Z</time>
      </trkpt>
      <trkpt lat="59.9545782" lon="17.7147807">
        <ele>41.474</ele>
        <time>2012-09-16T11:12:47Z</time>
      </trkpt>
      <trkpt lat="59.9544999" lon="17.7147716">
        <ele>42.916</ele>
        <time>2012-09-16T11:12:50Z</time>
      </trkpt>
      <trkpt lat="59.9543456" lon="17.7147975">
        <ele>45.3192</ele>
        <time>2012-09-16T11:12:55Z</time>
      </trkpt>
      <trkpt lat="59.9542252" lon="17.7148322">
        <ele>49.6453</ele>
        <time>2012-09-16T11:13:00Z</time>
      </trkpt>
      <trkpt lat="59.9540996" lon="17.7148742">
        <ele>52.0486</ele>
        <time>2012-09-16T11:13:05Z</time>
      </trkpt>
      <trkpt lat="59.9540311" lon="17.7148902">
        <ele>52.5292</ele>
        <time>2012-09-16T11:13:08Z</time>
      </trkpt>
      <trkpt lat="59.9539" lon="17.7149036">
        <ele>53.9712</ele>
        <time>2012-09-16T11:13:13Z</time>
      </trkpt>
      <trkpt lat="59.9537767" lon="17.7149242">
        <ele>57.3358</ele>
        <time>2012-09-16T11:13:17Z</time>
      </trkpt>
      <trkpt lat="59.9537079" lon="17.7149923">
        <ele>55.4131</ele>
        <time>2012-09-16T11:13:22Z</time>
      </trkpt>
      <trkpt lat="59.9536935" lon="17.7150108">
        <ele>54.4518</ele>
        <time>2012-09-16T11:13:23Z</time>
      </trkpt>
      <trkpt lat="59.9535556" lon="17.7151248">
        <ele>53.9712</ele>
        <time>2012-09-16T11:13:29Z</time>
      </trkpt>
      <trkpt lat="59.9534726" lon="17.7152653">
        <ele>53.0098</ele>
        <time>2012-09-16T11:13:34Z</time>
      </trkpt>
      <trkpt lat="59.9534003" lon="17.7153832">
        <ele>51.5679</ele>
        <time>2012-09-16T11:13:38Z</time>
      </trkpt>
      <trkpt lat="59.9533341" lon="17.7154855">
        <ele>56.3745</ele>
        <time>2012-09-16T11:13:43Z</time>
      </trkpt>
      <trkpt lat="59.9532661" lon="17.7156081">
        <ele>55.8938</ele>
        <time>2012-09-16T11:13:47Z</time>
      </trkpt>
      <trkpt lat="59.9531904" lon="17.7157341">
        <ele>54.4518</ele>
        <time>2012-09-16T11:13:51Z</time>
      </trkpt>
      <trkpt lat="59.9531143" lon="17.7158466">
        <ele>54.4518</ele>
        <time>2012-09-16T11:13:55Z</time>
      </trkpt>
      <trkpt lat="59.9530561" lon="17.7160207">
        <ele>56.3745</ele>
        <time>2012-09-16T11:13:59Z</time>
      </trkpt>
      <trkpt lat="59.9530351" lon="17.7162535">
        <ele>58.2971</ele>
        <time>2012-09-16T11:14:04Z</time>
      </trkpt>
      <trkpt lat="59.9530185" lon="17.7163731">
        <ele>60.7003</ele>
        <time>2012-09-16T11:14:07Z</time>
      </trkpt>
      <trkpt lat="59.9530084" lon="17.7164411">
        <ele>62.1423</ele>
        <time>2012-09-16T11:14:09Z</time>
      </trkpt>
      <trkpt lat="59.952995" lon="17.7166582">
        <ele>64.5457</ele>
        <time>2012-09-16T11:14:14Z</time>
      </trkpt>
      <trkpt lat="59.9529936" lon="17.7168208">
        <ele>65.5071</ele>
        <time>2012-09-16T11:14:17Z</time>
      </trkpt>
      <trkpt lat="59.952993" lon="17.7169846">
        <ele>68.8716</ele>
        <time>2012-09-16T11:14:20Z</time>
      </trkpt>
      <trkpt lat="59.9529978" lon="17.7172291">
        <ele>74.1588</ele>
        <time>2012-09-16T11:14:25Z</time>
      </trkpt>
      <trkpt lat="59.9529526" lon="17.7174514">
        <ele>75.1202</ele>
        <time>2012-09-16T11:14:30Z</time>
      </trkpt>
      <trkpt lat="59.9528646" lon="17.7176526">
        <ele>70.7942</ele>
        <time>2012-09-16T11:14:36Z</time>
      </trkpt>
      <trkpt lat="59.9527656" lon="17.7178138">
        <ele>67.9103</ele>
        <time>2012-09-16T11:14:41Z</time>
      </trkpt>
      <trkpt lat="59.9526901" lon="17.7179683">
        <ele>64.5457</ele>
        <time>2012-09-16T11:14:45Z</time>
      </trkpt>
      <trkpt lat="59.9526342" lon="17.7182076">
        <ele>64.0651</ele>
        <time>2012-09-16T11:14:50Z</time>
      </trkpt>
      <trkpt lat="59.9525865" lon="17.7183992">
        <ele>65.0264</ele>
        <time>2012-09-16T11:14:54Z</time>
      </trkpt>
      <trkpt lat="59.9525445" lon="17.718624">
        <ele>65.0264</ele>
        <time>2012-09-16T11:14:59Z</time>
      </trkpt>
      <trkpt lat="59.9525049" lon="17.718837">
        <ele>64.5457</ele>
        <time>2012-09-16T11:15:03Z</time>
      </trkpt>
      <trkpt lat="59.9524879" lon="17.7190265">
        <ele>67.9103</ele>
        <time>2012-09-16T11:15:08Z</time>
      </trkpt>
      <trkpt lat="59.9524788" lon="17.7191047">
        <ele>66.949</ele>
        <time>2012-09-16T11:15:10Z</time>
      </trkpt>
      <trkpt lat="59.9524503" lon="17.7192966">
        <ele>69.3523</ele>
        <time>2012-09-16T11:15:14Z</time>
      </trkpt>
      <trkpt lat="59.9524446" lon="17.7195373">
        <ele>69.3523</ele>
        <time>2012-09-16T11:15:18Z</time>
      </trkpt>
      <trkpt lat="59.952472" lon="17.7197627">
        <ele>69.3523</ele>
        <time>2012-09-16T11:15:23Z</time>
      </trkpt>
      <trkpt lat="59.9525057" lon="17.7198738">
        <ele>65.5071</ele>
        <time>2012-09-16T11:15:27Z</time>
      </trkpt>
      <trkpt lat="59.9525122" lon="17.719913">
        <ele>65.0264</ele>
        <time>2012-09-16T11:15:28Z</time>
      </trkpt>
      <trkpt lat="59.9525315" lon="17.720004">
        <ele>65.0264</ele>
        <time>2012-09-16T11:15:30Z</time>
      </trkpt>
      <trkpt lat="59.9525866" lon="17.7202335">
        <ele>66.949</ele>
        <time>2012-09-16T11:15:35Z</time>
      </trkpt>
      <trkpt lat="59.9525974" lon="17.7204303">
        <ele>67.9103</ele>
        <time>2012-09-16T11:15:39Z</time>
      </trkpt>
      <trkpt lat="59.9525914" lon="17.7205328">
        <ele>68.3909</ele>
        <time>2012-09-16T11:15:41Z</time>
      </trkpt>
      <trkpt lat="59.9525875" lon="17.7206736">
        <ele>69.3523</ele>
        <time>2012-09-16T11:15:44Z</time>
      </trkpt>
      <trkpt lat="59.9525764" lon="17.7209221">
        <ele>68.3909</ele>
        <time>2012-09-16T11:15:50Z</time>
      </trkpt>
      <trkpt lat="59.9526051" lon="17.7211026">
        <ele>71.2749</ele>
        <time>2012-09-16T11:15:54Z</time>
      </trkpt>
      <trkpt lat="59.9526161" lon="17.7213326">
        <ele>74.6395</ele>
        <time>2012-09-16T11:15:59Z</time>
      </trkpt>
      <trkpt lat="59.9526071" lon="17.7215321">
        <ele>74.6395</ele>
        <time>2012-09-16T11:16:02Z</time>
      </trkpt>
      <trkpt lat="59.9525993" lon="17.7217098">
        <ele>74.6395</ele>
        <time>2012-09-16T11:16:05Z</time>
      </trkpt>
      <trkpt lat="59.9526028" lon="17.7219754">
        <ele>68.8716</ele>
        <time>2012-09-16T11:16:12Z</time>
      </trkpt>
      <trkpt lat="59.9526309" lon="17.7222507">
        <ele>70.3135</ele>
        <time>2012-09-16T11:16:18Z</time>
      </trkpt>
      <trkpt lat="59.9526164" lon="17.722351">
        <ele>68.3909</ele>
        <time>2012-09-16T11:16:20Z</time>
      </trkpt>
      <trkpt lat="59.9525591" lon="17.7225211">
        <ele>66.949</ele>
        <time>2012-09-16T11:16:24Z</time>
      </trkpt>
      <trkpt lat="59.9525123" lon="17.7226012">
        <ele>65.0264</ele>
        <time>2012-09-16T11:16:27Z</time>
      </trkpt>
      <trkpt lat="59.9525047" lon="17.7228012">
        <ele>65.9877</ele>
        <time>2012-09-16T11:16:31Z</time>
      </trkpt>
      <trkpt lat="59.9525073" lon="17.723024">
        <ele>66.4683</ele>
        <time>2012-09-16T11:16:36Z</time>
      </trkpt>
      <trkpt lat="59.9525363" lon="17.7232435">
        <ele>65.9877</ele>
        <time>2012-09-16T11:16:40Z</time>
      </trkpt>
      <trkpt lat="59.9525725" lon="17.723466">
        <ele>60.7003</ele>
        <time>2012-09-16T11:16:45Z</time>
      </trkpt>
      <trkpt lat="59.9526453" lon="17.7236771">
        <ele>57.3358</ele>
        <time>2012-09-16T11:16:50Z</time>
      </trkpt>
      <trkpt lat="59.9527056" lon="17.7238229">
        <ele>56.8551</ele>
        <time>2012-09-16T11:16:54Z</time>
      </trkpt>
      <trkpt lat="59.9526921" lon="17.724116">
        <ele>56.3745</ele>
        <time>2012-09-16T11:17:00Z</time>
      </trkpt>
      <trkpt lat="59.9526579" lon="17.7242371">
        <ele>56.8551</ele>
        <time>2012-09-16T11:17:03Z</time>
      </trkpt>
      <trkpt lat="59.9526047" lon="17.7243609">
        <ele>55.4131</ele>
        <time>2012-09-16T11:17:06Z</time>
      </trkpt>
      <trkpt lat="59.9525325" lon="17.7245742">
        <ele>53.9712</ele>
        <time>2012-09-16T11:17:11Z</time>
      </trkpt>
      <trkpt lat="59.9524597" lon="17.7246971">
        <ele>53.4905</ele>
        <time>2012-09-16T11:17:15Z</time>
      </trkpt>
      <trkpt lat="59.9523472" lon="17.7248819">
        <ele>51.5679</ele>
        <time>2012-09-16T11:17:20Z</time>
      </trkpt>
      <trkpt lat="59.9522534" lon="17.7250391">
        <ele>53.0098</ele>
        <time>2012-09-16T11:17:26Z</time>
      </trkpt>
      <trkpt lat="59.9521705" lon="17.7252019">
        <ele>53.4905</ele>
        <time>2012-09-16T11:17:31Z</time>
      </trkpt>
      <trkpt lat="59.9521144" lon="17.7253671">
        <ele>54.9324</ele>
        <time>2012-09-16T11:17:35Z</time>
      </trkpt>
      <trkpt lat="59.9520659" lon="17.7254391">
        <ele>56.8551</ele>
        <time>2012-09-16T11:17:38Z</time>
      </trkpt>
      <trkpt lat="59.9520126" lon="17.7256049">
        <ele>56.8551</ele>
        <time>2012-09-16T11:17:43Z</time>
      </trkpt>
      <trkpt lat="59.951968" lon="17.7257757">
        <ele>54.4518</ele>
        <time>2012-09-16T11:17:47Z</time>
      </trkpt>
      <trkpt lat="59.9518885" lon="17.7258851">
        <ele>53.9712</ele>
        <time>2012-09-16T11:17:52Z</time>
      </trkpt>
      <trkpt lat="59.9518667" lon="17.7259011">
        <ele>53.4905</ele>
        <time>2012-09-16T11:17:53Z</time>
      </trkpt>
      <trkpt lat="59.9517417" lon="17.7259855">
        <ele>53.9712</ele>
        <time>2012-09-16T11:17:59Z</time>
      </trkpt>
      <trkpt lat="59.9516647" lon="17.7261185">
        <ele>57.3358</ele>
        <time>2012-09-16T11:18:04Z</time>
      </trkpt>
      <trkpt lat="59.9516535" lon="17.7261636">
        <ele>57.8165</ele>
        <time>2012-09-16T11:18:05Z</time>
      </trkpt>
      <trkpt lat="59.9515972" lon="17.7263631">
        <ele>61.6617</ele>
        <time>2012-09-16T11:18:10Z</time>
      </trkpt>
      <trkpt lat="59.9515616" lon="17.726513">
        <ele>63.1036</ele>
        <time>2012-09-16T11:18:13Z</time>
      </trkpt>
      <trkpt lat="59.9515117" lon="17.7266761">
        <ele>65.5071</ele>
        <time>2012-09-16T11:18:17Z</time>
      </trkpt>
      <trkpt lat="59.9515042" lon="17.7267662">
        <ele>65.9877</ele>
        <time>2012-09-16T11:18:19Z</time>
      </trkpt>
      <trkpt lat="59.9515233" lon="17.7269527">
        <ele>64.0651</ele>
        <time>2012-09-16T11:18:23Z</time>
      </trkpt>
      <trkpt lat="59.9515397" lon="17.7271868">
        <ele>61.181</ele>
        <time>2012-09-16T11:18:28Z</time>
      </trkpt>
      <trkpt lat="59.951558" lon="17.7274312">
        <ele>64.5457</ele>
        <time>2012-09-16T11:18:33Z</time>
      </trkpt>
      <trkpt lat="59.9515845" lon="17.7276657">
        <ele>66.4683</ele>
        <time>2012-09-16T11:18:37Z</time>
      </trkpt>
      <trkpt lat="59.9516322" lon="17.7278795">
        <ele>61.6617</ele>
        <time>2012-09-16T11:18:43Z</time>
      </trkpt>
      <trkpt lat="59.9517103" lon="17.7279445">
        <ele>54.9324</ele>
        <time>2012-09-16T11:18:48Z</time>
      </trkpt>
      <trkpt lat="59.9517971" lon="17.7279363">
        <ele>51.5679</ele>
        <time>2012-09-16T11:18:53Z</time>
      </trkpt>
      <trkpt lat="59.9519216" lon="17.727842">
        <ele>50.126</ele>
        <time>2012-09-16T11:18:59Z</time>
      </trkpt>
      <trkpt lat="59.9519807" lon="17.7276906">
        <ele>48.684</ele>
        <time>2012-09-16T11:19:03Z</time>
      </trkpt>
      <trkpt lat="59.9520149" lon="17.7275122">
        <ele>46.2806</ele>
        <time>2012-09-16T11:19:07Z</time>
      </trkpt>
      <trkpt lat="59.9520228" lon="17.7274676">
        <ele>46.7612</ele>
        <time>2012-09-16T11:19:08Z</time>
      </trkpt>
      <trkpt lat="59.9520722" lon="17.727223">
        <ele>47.7225</ele>
        <time>2012-09-16T11:19:13Z</time>
      </trkpt>
      <trkpt lat="59.9521187" lon="17.726978">
        <ele>48.2034</ele>
        <time>2012-09-16T11:19:18Z</time>
      </trkpt>
      <trkpt lat="59.9521219" lon="17.7269366">
        <ele>48.2034</ele>
        <time>2012-09-16T11:19:19Z</time>
      </trkpt>
      <trkpt lat="59.9521959" lon="17.7266936">
        <ele>50.126</ele>
        <time>2012-09-16T11:19:25Z</time>
      </trkpt>
      <trkpt lat="59.9522495" lon="17.7265031">
        <ele>52.0486</ele>
        <time>2012-09-16T11:19:30Z</time>
      </trkpt>
      <trkpt lat="59.9523196" lon="17.7263008">
        <ele>52.5292</ele>
        <time>2012-09-16T11:19:35Z</time>
      </trkpt>
      <trkpt lat="59.9523834" lon="17.726144">
        <ele>52.0486</ele>
        <time>2012-09-16T11:19:40Z</time>
      </trkpt>
      <trkpt lat="59.9524785" lon="17.725957">
        <ele>51.5679</ele>
        <time>2012-09-16T11:19:45Z</time>
      </trkpt>
      <trkpt lat="59.9525538" lon="17.7257846">
        <ele>51.5679</ele>
        <time>2012-09-16T11:19:49Z</time>
      </trkpt>
      <trkpt lat="59.952617" lon="17.7256641">
        <ele>52.0486</ele>
        <time>2012-09-16T11:19:53Z</time>
      </trkpt>
      <trkpt lat="59.9527126" lon="17.7255202">
        <ele>50.126</ele>
        <time>2012-09-16T11:19:58Z</time>
      </trkpt>
      <trkpt lat="59.9527963" lon="17.7254016">
        <ele>47.7225</ele>
        <time>2012-09-16T11:20:03Z</time>
      </trkpt>
      <trkpt lat="59.9528485" lon="17.7253374">
        <ele>46.2806</ele>
        <time>2012-09-16T11:20:06Z</time>
      </trkpt>
      <trkpt lat="59.952976" lon="17.7251867">
        <ele>43.3966</ele>
        <time>2012-09-16T11:20:12Z</time>
      </trkpt>
      <trkpt lat="59.9530449" lon="17.7250852">
        <ele>42.916</ele>
        <time>2012-09-16T11:20:16Z</time>
      </trkpt>
      <trkpt lat="59.9531469" lon="17.7249359">
        <ele>40.5128</ele>
        <time>2012-09-16T11:20:22Z</time>
      </trkpt>
      <trkpt lat="59.9532355" lon="17.7247982">
        <ele>39.5513</ele>
        <time>2012-09-16T11:20:26Z</time>
      </trkpt>
      <trkpt lat="59.9533138" lon="17.7246457">
        <ele>40.0321</ele>
        <time>2012-09-16T11:20:31Z</time>
      </trkpt>
      <trkpt lat="59.9533542" lon="17.7245495">
        <ele>40.0321</ele>
        <time>2012-09-16T11:20:34Z</time>
      </trkpt>
      <trkpt lat="59.9534111" lon="17.7243703">
        <ele>40.5128</ele>
        <time>2012-09-16T11:20:39Z</time>
      </trkpt>
      <trkpt lat="59.9534443" lon="17.7242752">
        <ele>40.9934</ele>
        <time>2012-09-16T11:20:42Z</time>
      </trkpt>
      <trkpt lat="59.9535524" lon="17.7241124">
        <ele>41.9547</ele>
        <time>2012-09-16T11:20:48Z</time>
      </trkpt>
      <trkpt lat="59.9536207" lon="17.7240435">
        <ele>41.474</ele>
        <time>2012-09-16T11:20:51Z</time>
      </trkpt>
      <trkpt lat="59.9537006" lon="17.7238102">
        <ele>45.3192</ele>
        <time>2012-09-16T11:20:57Z</time>
      </trkpt>
      <trkpt lat="59.9537136" lon="17.7237757">
        <ele>45.3192</ele>
        <time>2012-09-16T11:20:58Z</time>
      </trkpt>
      <trkpt lat="59.9537805" lon="17.7237027">
        <ele>44.8386</ele>
        <time>2012-09-16T11:21:03Z</time>
      </trkpt>
      <trkpt lat="59.9539088" lon="17.7235462">
        <ele>43.8773</ele>
        <time>2012-09-16T11:21:09Z</time>
      </trkpt>
      <trkpt lat="59.9539291" lon="17.7234991">
        <ele>42.4354</ele>
        <time>2012-09-16T11:21:11Z</time>
      </trkpt>
      <trkpt lat="59.9540561" lon="17.7234157">
        <ele>39.0707</ele>
        <time>2012-09-16T11:21:17Z</time>
      </trkpt>
      <trkpt lat="59.9541281" lon="17.7233747">
        <ele>39.5513</ele>
        <time>2012-09-16T11:21:20Z</time>
      </trkpt>
      <trkpt lat="59.954219" lon="17.7233585">
        <ele>39.5513</ele>
        <time>2012-09-16T11:21:24Z</time>
      </trkpt>
      <trkpt lat="59.9543057" lon="17.7233373">
        <ele>40.9934</ele>
        <time>2012-09-16T11:21:28Z</time>
      </trkpt>
      <trkpt lat="59.9544544" lon="17.7233597">
        <ele>46.7612</ele>
        <time>2012-09-16T11:21:33Z</time>
      </trkpt>
      <trkpt lat="59.9545596" lon="17.7234253">
        <ele>47.2418</ele>
        <time>2012-09-16T11:21:38Z</time>
      </trkpt>
      <trkpt lat="59.9546762" lon="17.723488">
        <ele>45.3192</ele>
        <time>2012-09-16T11:21:43Z</time>
      </trkpt>
      <trkpt lat="59.9547752" lon="17.7235182">
        <ele>45.3192</ele>
        <time>2012-09-16T11:21:48Z</time>
      </trkpt>
      <trkpt lat="59.9548916" lon="17.7235865">
        <ele>46.2806</ele>
        <time>2012-09-16T11:21:53Z</time>
      </trkpt>
      <trkpt lat="59.9549828" lon="17.7236146">
        <ele>48.2034</ele>
        <time>2012-09-16T11:21:57Z</time>
      </trkpt>
      <trkpt lat="59.9550965" lon="17.7235761">
        <ele>49.6453</ele>
        <time>2012-09-16T11:22:01Z</time>
      </trkpt>
      <trkpt lat="59.9551315" lon="17.723559">
        <ele>49.1646</ele>
        <time>2012-09-16T11:22:03Z</time>
      </trkpt>
      <trkpt lat="59.9552262" lon="17.7234622">
        <ele>49.6453</ele>
        <time>2012-09-16T11:22:08Z</time>
      </trkpt>
      <trkpt lat="59.9553201" lon="17.7233846">
        <ele>50.6066</ele>
        <time>2012-09-16T11:22:12Z</time>
      </trkpt>
      <trkpt lat="59.955441" lon="17.7233499">
        <ele>52.5292</ele>
        <time>2012-09-16T11:22:17Z</time>
      </trkpt>
      <trkpt lat="59.9555304" lon="17.7233655">
        <ele>54.4518</ele>
        <time>2012-09-16T11:22:21Z</time>
      </trkpt>
      <trkpt lat="59.9555966" lon="17.7234313">
        <ele>54.9324</ele>
        <time>2012-09-16T11:22:24Z</time>
      </trkpt>
      <trkpt lat="59.9557256" lon="17.7235125">
        <ele>55.8938</ele>
        <time>2012-09-16T11:22:29Z</time>
      </trkpt>
      <trkpt lat="59.955763" lon="17.7235418">
        <ele>55.8938</ele>
        <time>2012-09-16T11:22:31Z</time>
      </trkpt>
      <trkpt lat="59.9558809" lon="17.723655">
        <ele>53.0098</ele>
        <time>2012-09-16T11:22:37Z</time>
      </trkpt>
      <trkpt lat="59.9559235" lon="17.7236653">
        <ele>51.5679</ele>
        <time>2012-09-16T11:22:39Z</time>
      </trkpt>
      <trkpt lat="59.9560258" lon="17.7234878">
        <ele>49.1646</ele>
        <time>2012-09-16T11:22:45Z</time>
      </trkpt>
      <trkpt lat="59.9560696" lon="17.7233613">
        <ele>47.7225</ele>
        <time>2012-09-16T11:22:48Z</time>
      </trkpt>
      <trkpt lat="59.9560852" lon="17.723268">
        <ele>47.7225</ele>
        <time>2012-09-16T11:22:50Z</time>
      </trkpt>
      <trkpt lat="59.9560771" lon="17.7229964">
        <ele>47.2418</ele>
        <time>2012-09-16T11:22:55Z</time>
      </trkpt>
      <trkpt lat="59.9560499" lon="17.7228156">
        <ele>47.7225</ele>
        <time>2012-09-16T11:22:59Z</time>
      </trkpt>
      <trkpt lat="59.9560326" lon="17.7227547">
        <ele>47.7225</ele>
        <time>2012-09-16T11:23:01Z</time>
      </trkpt>
      <trkpt lat="59.9560096" lon="17.7225781">
        <ele>47.7225</ele>
        <time>2012-09-16T11:23:05Z</time>
      </trkpt>
      <trkpt lat="59.9560027" lon="17.7224266">
        <ele>48.2034</ele>
        <time>2012-09-16T11:23:09Z</time>
      </trkpt>
      <trkpt lat="59.9559813" lon="17.7221475">
        <ele>50.6066</ele>
        <time>2012-09-16T11:23:15Z</time>
      </trkpt>
      <trkpt lat="59.9559597" lon="17.7219449">
        <ele>54.4518</ele>
        <time>2012-09-16T11:23:19Z</time>
      </trkpt>
      <trkpt lat="59.9559535" lon="17.7217081">
        <ele>57.3358</ele>
        <time>2012-09-16T11:23:24Z</time>
      </trkpt>
      <trkpt lat="59.9559867" lon="17.7214703">
        <ele>56.3745</ele>
        <time>2012-09-16T11:23:29Z</time>
      </trkpt>
      <trkpt lat="59.9559026" lon="17.7213108">
        <ele>56.3745</ele>
        <time>2012-09-16T11:23:34Z</time>
      </trkpt>
      <trkpt lat="59.9558376" lon="17.7212191">
        <ele>56.3745</ele>
        <time>2012-09-16T11:23:38Z</time>
      </trkpt>
      <trkpt lat="59.955781" lon="17.7211996">
        <ele>56.3745</ele>
        <time>2012-09-16T11:23:41Z</time>
      </trkpt>
      <trkpt lat="59.9556814" lon="17.7212774">
        <ele>56.3745</ele>
        <time>2012-09-16T11:23:47Z</time>
      </trkpt>
      <trkpt lat="59.9555742" lon="17.7213436">
        <ele>57.3358</ele>
        <time>2012-09-16T11:23:52Z</time>
      </trkpt>
      <trkpt lat="59.955464" lon="17.7213964">
        <ele>57.8165</ele>
        <time>2012-09-16T11:23:56Z</time>
      </trkpt>
      <trkpt lat="59.9552888" lon="17.7213949">
        <ele>62.6229</ele>
        <time>2012-09-16T11:24:01Z</time>
      </trkpt>
      <trkpt lat="59.9551927" lon="17.7213603">
        <ele>67.4297</ele>
        <time>2012-09-16T11:24:05Z</time>
      </trkpt>
      <trkpt lat="59.9551128" lon="17.7213368">
        <ele>67.4297</ele>
        <time>2012-09-16T11:24:08Z</time>
      </trkpt>
      <trkpt lat="59.9549911" lon="17.7213203">
        <ele>63.1036</ele>
        <time>2012-09-16T11:24:14Z</time>
      </trkpt>
      <trkpt lat="59.9549083" lon="17.7212903">
        <ele>63.5844</ele>
        <time>2012-09-16T11:24:18Z</time>
      </trkpt>
      <trkpt lat="59.9547796" lon="17.7212244">
        <ele>65.5071</ele>
        <time>2012-09-16T11:24:22Z</time>
      </trkpt>
      <trkpt lat="59.9547362" lon="17.7210484">
        <ele>63.5844</ele>
        <time>2012-09-16T11:24:26Z</time>
      </trkpt>
      <trkpt lat="59.9547443" lon="17.7208808">
        <ele>61.6617</ele>
        <time>2012-09-16T11:24:29Z</time>
      </trkpt>
      <trkpt lat="59.9547932" lon="17.7206579">
        <ele>58.2971</ele>
        <time>2012-09-16T11:24:34Z</time>
      </trkpt>
      <trkpt lat="59.954917" lon="17.7204139">
        <ele>56.3745</ele>
        <time>2012-09-16T11:24:40Z</time>
      </trkpt>
      <trkpt lat="59.9550447" lon="17.720275">
        <ele>55.4131</ele>
        <time>2012-09-16T11:24:45Z</time>
      </trkpt>
      <trkpt lat="59.9551626" lon="17.7201533">
        <ele>54.9324</ele>
        <time>2012-09-16T11:24:50Z</time>
      </trkpt>
      <trkpt lat="59.9552729" lon="17.7200305">
        <ele>55.8938</ele>
        <time>2012-09-16T11:24:55Z</time>
      </trkpt>
      <trkpt lat="59.9553776" lon="17.7198909">
        <ele>57.8165</ele>
        <time>2012-09-16T11:25:00Z</time>
      </trkpt>
      <trkpt lat="59.9554762" lon="17.7197922">
        <ele>58.7777</ele>
        <time>2012-09-16T11:25:05Z</time>
      </trkpt>
      <trkpt lat="59.9555396" lon="17.719765">
        <ele>58.7777</ele>
        <time>2012-09-16T11:25:09Z</time>
      </trkpt>
      <trkpt lat="59.9556412" lon="17.7197643">
        <ele>58.7777</ele>
        <time>2012-09-16T11:25:14Z</time>
      </trkpt>
      <trkpt lat="59.9557497" lon="17.7196766">
        <ele>56.8551</ele>
        <time>2012-09-16T11:25:19Z</time>
      </trkpt>
      <trkpt lat="59.9558131" lon="17.7196154">
        <ele>55.8938</ele>
        <time>2012-09-16T11:25:22Z</time>
      </trkpt>
      <trkpt lat="59.9558969" lon="17.7195113">
        <ele>55.8938</ele>
        <time>2012-09-16T11:25:27Z</time>
      </trkpt>
      <trkpt lat="59.9559939" lon="17.7193841">
        <ele>55.4131</ele>
        <time>2012-09-16T11:25:33Z</time>
      </trkpt>
      <trkpt lat="59.9560756" lon="17.7192665">
        <ele>56.8551</ele>
        <time>2012-09-16T11:25:37Z</time>
      </trkpt>
      <trkpt lat="59.9561735" lon="17.7190756">
        <ele>56.8551</ele>
        <time>2012-09-16T11:25:42Z</time>
      </trkpt>
      <trkpt lat="59.9562199" lon="17.7188815">
        <ele>55.8938</ele>
        <time>2012-09-16T11:25:47Z</time>
      </trkpt>
      <trkpt lat="59.956232" lon="17.7187349">
        <ele>56.3745</ele>
        <time>2012-09-16T11:25:50Z</time>
      </trkpt>
      <trkpt lat="59.9561717" lon="17.7184769">
        <ele>56.8551</ele>
        <time>2012-09-16T11:25:56Z</time>
      </trkpt>
      <trkpt lat="59.9560562" lon="17.7182059">
        <ele>58.7777</ele>
        <time>2012-09-16T11:26:03Z</time>
      </trkpt>
      <trkpt lat="59.9559716" lon="17.7180074">
        <ele>60.2197</ele>
        <time>2012-09-16T11:26:08Z</time>
      </trkpt>
      <trkpt lat="59.9559183" lon="17.7178586">
        <ele>62.6229</ele>
        <time>2012-09-16T11:26:12Z</time>
      </trkpt>
      <trkpt lat="59.9558327" lon="17.7176262">
        <ele>63.1036</ele>
        <time>2012-09-16T11:26:18Z</time>
      </trkpt>
      <trkpt lat="59.9557282" lon="17.7174511">
        <ele>63.5844</ele>
        <time>2012-09-16T11:26:23Z</time>
      </trkpt>
      <trkpt lat="59.9556546" lon="17.7173057">
        <ele>63.1036</ele>
        <time>2012-09-16T11:26:27Z</time>
      </trkpt>
      <trkpt lat="59.9555805" lon="17.7171479">
        <ele>59.2584</ele>
        <time>2012-09-16T11:26:31Z</time>
      </trkpt>
      <trkpt lat="59.9555325" lon="17.7169782">
        <ele>57.8165</ele>
        <time>2012-09-16T11:26:35Z</time>
      </trkpt>
      <trkpt lat="59.9555153" lon="17.7168875">
        <ele>56.8551</ele>
        <time>2012-09-16T11:26:37Z</time>
      </trkpt>
      <trkpt lat="59.9555044" lon="17.716595">
        <ele>55.4131</ele>
        <time>2012-09-16T11:26:43Z</time>
      </trkpt>
      <trkpt lat="59.9554916" lon="17.7163976">
        <ele>53.9712</ele>
        <time>2012-09-16T11:26:47Z</time>
      </trkpt>
      <trkpt lat="59.9554887" lon="17.7162027">
        <ele>52.0486</ele>
        <time>2012-09-16T11:26:51Z</time>
      </trkpt>
      <trkpt lat="59.9554816" lon="17.7160946">
        <ele>51.0872</ele>
        <time>2012-09-16T11:26:53Z</time>
      </trkpt>
      <trkpt lat="59.9554812" lon="17.7158242">
        <ele>47.2418</ele>
        <time>2012-09-16T11:26:58Z</time>
      </trkpt>
      <trkpt lat="59.9554785" lon="17.715619">
        <ele>46.2806</ele>
        <time>2012-09-16T11:27:02Z</time>
      </trkpt>
      <trkpt lat="59.9554675" lon="17.7154663">
        <ele>43.8773</ele>
        <time>2012-09-16T11:27:06Z</time>
      </trkpt>
      <trkpt lat="59.9554525" lon="17.7152689">
        <ele>43.3966</ele>
        <time>2012-09-16T11:27:11Z</time>
      </trkpt>
      <trkpt lat="59.9554395" lon="17.7151817">
        <ele>43.3966</ele>
        <time>2012-09-16T11:27:13Z</time>
      </trkpt>
      <trkpt lat="59.9553859" lon="17.714969">
        <ele>44.358</ele>
        <time>2012-09-16T11:27:18Z</time>
      </trkpt>
      <trkpt lat="59.955361" lon="17.7148869">
        <ele>45.7999</ele>
        <time>2012-09-16T11:27:20Z</time>
      </trkpt>
      <trkpt lat="59.9553336" lon="17.7147198">
        <ele>47.2418</ele>
        <time>2012-09-16T11:27:24Z</time>
      </trkpt>
      <trkpt lat="59.9553191" lon="17.7144668">
        <ele>47.7225</ele>
        <time>2012-09-16T11:27:29Z</time>
      </trkpt>
      <trkpt lat="59.9552729" lon="17.714256">
        <ele>48.2034</ele>
        <time>2012-09-16T11:27:33Z</time>
      </trkpt>
      <trkpt lat="59.9551994" lon="17.7141096">
        <ele>46.2806</ele>
        <time>2012-09-16T11:27:37Z</time>
      </trkpt>
      <trkpt lat="59.9551388" lon="17.7141555">
        <ele>44.358</ele>
        <time>2012-09-16T11:27:40Z</time>
      </trkpt>
      <trkpt lat="59.9550693" lon="17.7143095">
        <ele>41.9547</ele>
        <time>2012-09-16T11:27:44Z</time>
      </trkpt>
      <trkpt lat="59.9549786" lon="17.7143935">
        <ele>41.9547</ele>
        <time>2012-09-16T11:27:47Z</time>
      </trkpt>
      <trkpt lat="59.9548943" lon="17.7145635">
        <ele>42.4354</ele>
        <time>2012-09-16T11:27:51Z</time>
      </trkpt>
      <trkpt lat="59.9548009" lon="17.7147639">
        <ele>42.916</ele>
        <time>2012-09-16T11:27:56Z</time>
      </trkpt>
      <trkpt lat="59.9547082" lon="17.714846">
        <ele>43.8773</ele>
        <time>2012-09-16T11:28:00Z</time>
      </trkpt>
      <trkpt lat="59.9545978" lon="17.7148783">
        <ele>45.7999</ele>
        <time>2012-09-16T11:28:04Z</time>
      </trkpt>
      <trkpt lat="59.9545537" lon="17.7148964">
        <ele>45.7999</ele>
        <time>2012-09-16T11:28:06Z</time>
      </trkpt>
      <trkpt lat="59.9544362" lon="17.7148742">
        <ele>48.684</ele>
        <time>2012-09-16T11:28:12Z</time>
      </trkpt>
      <trkpt lat="59.9542829" lon="17.7148876">
        <ele>52.0486</ele>
        <time>2012-09-16T11:28:18Z</time>
      </trkpt>
      <trkpt lat="59.9541949" lon="17.7149058">
        <ele>54.4518</ele>
        <time>2012-09-16T11:28:22Z</time>
      </trkpt>
      <trkpt lat="59.9540968" lon="17.7149149">
        <ele>53.9712</ele>
        <time>2012-09-16T11:28:26Z</time>
      </trkpt>
      <trkpt lat="59.9540484" lon="17.7149327">
        <ele>54.4518</ele>
        <time>2012-09-16T11:28:28Z</time>
      </trkpt>
      <trkpt lat="59.9539658" lon="17.7149416">
        <ele>55.4131</ele>
        <time>2012-09-16T11:28:33Z</time>
      </trkpt>
      <trkpt lat="59.9538872" lon="17.7149456">
        <ele>56.8551</ele>
        <time>2012-09-16T11:28:37Z</time>
      </trkpt>
      <trkpt lat="59.9537711" lon="17.7150114">
        <ele>59.7391</ele>
        <time>2012-09-16T11:28:43Z</time>
      </trkpt>
      <trkpt lat="59.9536436" lon="17.7150933">
        <ele>61.181</ele>
        <time>2012-09-16T11:28:49Z</time>
      </trkpt>
      <trkpt lat="59.9535687" lon="17.715202">
        <ele>60.2197</ele>
        <time>2012-09-16T11:28:53Z</time>
      </trkpt>
      <trkpt lat="59.9534971" lon="17.7153058">
        <ele>60.2197</ele>
        <time>2012-09-16T11:28:58Z</time>
      </trkpt>
      <trkpt lat="59.953408" lon="17.7154343">
        <ele>57.8165</ele>
        <time>2012-09-16T11:29:03Z</time>
      </trkpt>
      <trkpt lat="59.95331" lon="17.7155721">
        <ele>56.3745</ele>
        <time>2012-09-16T11:29:08Z</time>
      </trkpt>
      <trkpt lat="59.9532226" lon="17.715675">
        <ele>53.9712</ele>
        <time>2012-09-16T11:29:13Z</time>
      </trkpt>
      <trkpt lat="59.9531429" lon="17.7158159">
        <ele>52.0486</ele>
        <time>2012-09-16T11:29:18Z</time>
      </trkpt>
      <trkpt lat="59.9530967" lon="17.7159522">
        <ele>54.4518</ele>
        <time>2012-09-16T11:29:21Z</time>
      </trkpt>
      <trkpt lat="59.9530599" lon="17.7161573">
        <ele>61.181</ele>
        <time>2012-09-16T11:29:26Z</time>
      </trkpt>
      <trkpt lat="59.9530484" lon="17.7163607">
        <ele>64.5457</ele>
        <time>2012-09-16T11:29:30Z</time>
      </trkpt>
      <trkpt lat="59.9530128" lon="17.716466">
        <ele>65.0264</ele>
        <time>2012-09-16T11:29:33Z</time>
      </trkpt>
      <trkpt lat="59.9529831" lon="17.7166126">
        <ele>68.3909</ele>
        <time>2012-09-16T11:29:36Z</time>
      </trkpt>
      <trkpt lat="59.9530471" lon="17.7169565">
        <ele>82.3301</ele>
        <time>2012-09-16T11:29:42Z</time>
      </trkpt>
      <trkpt lat="59.9530559" lon="17.7171591">
        <ele>87.1366</ele>
        <time>2012-09-16T11:29:47Z</time>
      </trkpt>
      <trkpt lat="59.9530492" lon="17.7172467">
        <ele>87.6172</ele>
        <time>2012-09-16T11:29:49Z</time>
      </trkpt>
      <trkpt lat="59.9530081" lon="17.7174674">
        <ele>87.1366</ele>
        <time>2012-09-16T11:29:54Z</time>
      </trkpt>
      <trkpt lat="59.9528798" lon="17.7176845">
        <ele>76.5621</ele>
        <time>2012-09-16T11:30:00Z</time>
      </trkpt>
      <trkpt lat="59.9527911" lon="17.7178414">
        <ele>68.8716</ele>
        <time>2012-09-16T11:30:04Z</time>
      </trkpt>
      <trkpt lat="59.9526393" lon="17.7180833">
        <ele>60.7003</ele>
        <time>2012-09-16T11:30:10Z</time>
      </trkpt>
      <trkpt lat="59.9526094" lon="17.7182102">
        <ele>59.2584</ele>
        <time>2012-09-16T11:30:14Z</time>
      </trkpt>
      <trkpt lat="59.9525844" lon="17.7183391">
        <ele>57.3358</ele>
        <time>2012-09-16T11:30:18Z</time>
      </trkpt>
      <trkpt lat="59.9525761" lon="17.7184706">
        <ele>56.8551</ele>
        <time>2012-09-16T11:30:21Z</time>
      </trkpt>
      <trkpt lat="59.9525575" lon="17.7186956">
        <ele>60.7003</ele>
        <time>2012-09-16T11:30:26Z</time>
      </trkpt>
      <trkpt lat="59.9525242" lon="17.7189127">
        <ele>65.9877</ele>
        <time>2012-09-16T11:30:31Z</time>
      </trkpt>
      <trkpt lat="59.9524964" lon="17.7191588">
        <ele>70.7942</ele>
        <time>2012-09-16T11:30:36Z</time>
      </trkpt>
      <trkpt lat="59.9524664" lon="17.7193176">
        <ele>77.0428</ele>
        <time>2012-09-16T11:30:40Z</time>
      </trkpt>
      <trkpt lat="59.9524569" lon="17.719355">
        <ele>78.4847</ele>
        <time>2012-09-16T11:30:41Z</time>
      </trkpt>
      <trkpt lat="59.9524807" lon="17.7196021">
        <ele>80.4075</ele>
        <time>2012-09-16T11:30:46Z</time>
      </trkpt>
      <trkpt lat="59.9525208" lon="17.7197736">
        <ele>78.9655</ele>
        <time>2012-09-16T11:30:50Z</time>
      </trkpt>
      <trkpt lat="59.9525336" lon="17.7198215">
        <ele>78.4847</ele>
        <time>2012-09-16T11:30:51Z</time>
      </trkpt>
      <trkpt lat="59.952579" lon="17.7200709">
        <ele>77.5234</ele>
        <time>2012-09-16T11:30:57Z</time>
      </trkpt>
      <trkpt lat="59.952617" lon="17.7202776">
        <ele>77.5234</ele>
        <time>2012-09-16T11:31:01Z</time>
      </trkpt>
      <trkpt lat="59.9526196" lon="17.7204642">
        <ele>76.5621</ele>
        <time>2012-09-16T11:31:05Z</time>
      </trkpt>
      <trkpt lat="59.9526344" lon="17.720727">
        <ele>79.9266</ele>
        <time>2012-09-16T11:31:10Z</time>
      </trkpt>
      <trkpt lat="59.9526236" lon="17.7209245">
        <ele>78.004</ele>
        <time>2012-09-16T11:31:14Z</time>
      </trkpt>
      <trkpt lat="59.9526324" lon="17.7210644">
        <ele>78.4847</ele>
        <time>2012-09-16T11:31:17Z</time>
      </trkpt>
      <trkpt lat="59.9526056" lon="17.7214001">
        <ele>82.3301</ele>
        <time>2012-09-16T11:31:24Z</time>
      </trkpt>
      <trkpt lat="59.9525949" lon="17.7216534">
        <ele>82.8108</ele>
        <time>2012-09-16T11:31:29Z</time>
      </trkpt>
      <trkpt lat="59.9526065" lon="17.721854">
        <ele>79.9266</ele>
        <time>2012-09-16T11:31:34Z</time>
      </trkpt>
      <trkpt lat="59.9526068" lon="17.7218954">
        <ele>78.4847</ele>
        <time>2012-09-16T11:31:35Z</time>
      </trkpt>
      <trkpt lat="59.9525932" lon="17.7221178">
        <ele>73.1976</ele>
        <time>2012-09-16T11:31:40Z</time>
      </trkpt>
      <trkpt lat="59.952631" lon="17.722274">
        <ele>70.7942</ele>
        <time>2012-09-16T11:31:43Z</time>
      </trkpt>
      <trkpt lat="59.9526104" lon="17.7224505">
        <ele>69.8329</ele>
        <time>2012-09-16T11:31:47Z</time>
      </trkpt>
      <trkpt lat="59.9525875" lon="17.7225312">
        <ele>67.4297</ele>
        <time>2012-09-16T11:31:49Z</time>
      </trkpt>
      <trkpt lat="59.9525144" lon="17.7226815">
        <ele>67.4297</ele>
        <time>2012-09-16T11:31:53Z</time>
      </trkpt>
      <trkpt lat="59.9525112" lon="17.7227272">
        <ele>67.9103</ele>
        <time>2012-09-16T11:31:54Z</time>
      </trkpt>
      <trkpt lat="59.9525196" lon="17.722994">
        <ele>64.5457</ele>
        <time>2012-09-16T11:32:00Z</time>
      </trkpt>
      <trkpt lat="59.9525285" lon="17.7230484">
        <ele>64.5457</ele>
        <time>2012-09-16T11:32:01Z</time>
      </trkpt>
      <trkpt lat="59.952593" lon="17.7232704">
        <ele>63.1036</ele>
        <time>2012-09-16T11:32:05Z</time>
      </trkpt>
      <trkpt lat="59.9526031" lon="17.7234496">
        <ele>59.2584</ele>
        <time>2012-09-16T11:32:10Z</time>
      </trkpt>
      <trkpt lat="59.9526061" lon="17.7235273">
        <ele>57.3358</ele>
        <time>2012-09-16T11:32:12Z</time>
      </trkpt>
      <trkpt lat="59.9526569" lon="17.7236781">
        <ele>52.5292</ele>
        <time>2012-09-16T11:32:17Z</time>
      </trkpt>
      <trkpt lat="59.9526943" lon="17.7238472">
        <ele>50.6066</ele>
        <time>2012-09-16T11:32:21Z</time>
      </trkpt>
      <trkpt lat="59.9526787" lon="17.7240828">
        <ele>47.2418</ele>
        <time>2012-09-16T11:32:26Z</time>
      </trkpt>
      <trkpt lat="59.9526409" lon="17.7242274">
        <ele>48.2034</ele>
        <time>2012-09-16T11:32:30Z</time>
      </trkpt>
      <trkpt lat="59.9525885" lon="17.7243714">
        <ele>48.2034</ele>
        <time>2012-09-16T11:32:34Z</time>
      </trkpt>
      <trkpt lat="59.9525254" lon="17.7245217">
        <ele>51.0872</ele>
        <time>2012-09-16T11:32:38Z</time>
      </trkpt>
      <trkpt lat="59.9524267" lon="17.7246652">
        <ele>52.0486</ele>
        <time>2012-09-16T11:32:43Z</time>
      </trkpt>
      <trkpt lat="59.9524056" lon="17.7246923">
        <ele>52.0486</ele>
        <time>2012-09-16T11:32:44Z</time>
      </trkpt>
      <trkpt lat="59.9523062" lon="17.7247697">
        <ele>54.4518</ele>
        <time>2012-09-16T11:32:47Z</time>
      </trkpt>
      <trkpt lat="59.952241" lon="17.7249742">
        <ele>56.3745</ele>
        <time>2012-09-16T11:32:52Z</time>
      </trkpt>
      <trkpt lat="59.9521941" lon="17.7250689">
        <ele>58.7777</ele>
        <time>2012-09-16T11:32:55Z</time>
      </trkpt>
      <trkpt lat="59.9521413" lon="17.7252308">
        <ele>59.2584</ele>
        <time>2012-09-16T11:32:59Z</time>
      </trkpt>
      <trkpt lat="59.9520783" lon="17.7253581">
        <ele>59.2584</ele>
        <time>2012-09-16T11:33:03Z</time>
      </trkpt>
      <trkpt lat="59.9520481" lon="17.7254768">
        <ele>57.8165</ele>
        <time>2012-09-16T11:33:06Z</time>
      </trkpt>
      <trkpt lat="59.9519939" lon="17.7256259">
        <ele>56.8551</ele>
        <time>2012-09-16T11:33:10Z</time>
      </trkpt>
      <trkpt lat="59.9519726" lon="17.7256649">
        <ele>56.3745</ele>
        <time>2012-09-16T11:33:11Z</time>
      </trkpt>
      <trkpt lat="59.9519032" lon="17.7257861">
        <ele>56.8551</ele>
        <time>2012-09-16T11:33:15Z</time>
      </trkpt>
      <trkpt lat="59.9518072" lon="17.7259006">
        <ele>54.4518</ele>
        <time>2012-09-16T11:33:20Z</time>
      </trkpt>
      <trkpt lat="59.951727" lon="17.7259757">
        <ele>55.4131</ele>
        <time>2012-09-16T11:33:24Z</time>
      </trkpt>
      <trkpt lat="59.9516691" lon="17.726034">
        <ele>53.9712</ele>
        <time>2012-09-16T11:33:27Z</time>
      </trkpt>
      <trkpt lat="59.9515436" lon="17.7262806">
        <ele>54.9324</ele>
        <time>2012-09-16T11:33:34Z</time>
      </trkpt>
      <trkpt lat="59.9515174" lon="17.7263845">
        <ele>56.8551</ele>
        <time>2012-09-16T11:33:37Z</time>
      </trkpt>
      <trkpt lat="59.9514582" lon="17.7265256">
        <ele>59.7391</ele>
        <time>2012-09-16T11:33:41Z</time>
      </trkpt>
      <trkpt lat="59.9514406" lon="17.7267346">
        <ele>65.9877</ele>
        <time>2012-09-16T11:33:46Z</time>
      </trkpt>
      <trkpt lat="59.9514673" lon="17.7269319">
        <ele>68.3909</ele>
        <time>2012-09-16T11:33:51Z</time>
      </trkpt>
      <trkpt lat="59.9515546" lon="17.7271342">
        <ele>72.2362</ele>
        <time>2012-09-16T11:33:54Z</time>
      </trkpt>
      <trkpt lat="59.9516245" lon="17.72729">
        <ele>69.3523</ele>
        <time>2012-09-16T11:33:57Z</time>
      </trkpt>
      <trkpt lat="59.9516165" lon="17.7274981">
        <ele>66.949</ele>
        <time>2012-09-16T11:34:01Z</time>
      </trkpt>
      <trkpt lat="59.9516126" lon="17.7276529">
        <ele>68.3909</ele>
        <time>2012-09-16T11:34:04Z</time>
      </trkpt>
      <trkpt lat="59.9516228" lon="17.7277123">
        <ele>67.4297</ele>
        <time>2012-09-16T11:34:05Z</time>
      </trkpt>
      <trkpt lat="59.951651" lon="17.7278929">
        <ele>60.7003</ele>
        <time>2012-09-16T11:34:11Z</time>
      </trkpt>
      <trkpt lat="59.951682" lon="17.7279441">
        <ele>55.8938</ele>
        <time>2012-09-16T11:34:15Z</time>
      </trkpt>
      <trkpt lat="59.951774" lon="17.7279395">
        <ele>49.1646</ele>
        <time>2012-09-16T11:34:20Z</time>
      </trkpt>
      <trkpt lat="59.9518706" lon="17.7278774">
        <ele>46.2806</ele>
        <time>2012-09-16T11:34:24Z</time>
      </trkpt>
      <trkpt lat="59.9519802" lon="17.7276807">
        <ele>42.4354</ele>
        <time>2012-09-16T11:34:30Z</time>
      </trkpt>
      <trkpt lat="59.9520389" lon="17.7274549">
        <ele>39.0707</ele>
        <time>2012-09-16T11:34:36Z</time>
      </trkpt>
      <trkpt lat="59.9520641" lon="17.7272667">
        <ele>38.1094</ele>
        <time>2012-09-16T11:34:41Z</time>
      </trkpt>
      <trkpt lat="59.9521042" lon="17.7270371">
        <ele>37.1481</ele>
        <time>2012-09-16T11:34:46Z</time>
      </trkpt>
      <trkpt lat="59.9521472" lon="17.726869">
        <ele>36.6675</ele>
        <time>2012-09-16T11:34:50Z</time>
      </trkpt>
      <trkpt lat="59.9521863" lon="17.7266983">
        <ele>35.7061</ele>
        <time>2012-09-16T11:34:54Z</time>
      </trkpt>
      <trkpt lat="59.9522337" lon="17.7265007">
        <ele>35.2255</ele>
        <time>2012-09-16T11:34:59Z</time>
      </trkpt>
      <trkpt lat="59.9523022" lon="17.726279">
        <ele>38.5901</ele>
        <time>2012-09-16T11:35:04Z</time>
      </trkpt>
      <trkpt lat="59.9523596" lon="17.7261413">
        <ele>40.0321</ele>
        <time>2012-09-16T11:35:08Z</time>
      </trkpt>
      <trkpt lat="59.9524448" lon="17.7259801">
        <ele>41.9547</ele>
        <time>2012-09-16T11:35:13Z</time>
      </trkpt>
      <trkpt lat="59.9525341" lon="17.7257793">
        <ele>42.4354</ele>
        <time>2012-09-16T11:35:18Z</time>
      </trkpt>
      <trkpt lat="59.952637" lon="17.7256213">
        <ele>41.9547</ele>
        <time>2012-09-16T11:35:23Z</time>
      </trkpt>
      <trkpt lat="59.9527489" lon="17.7254375">
        <ele>40.9934</ele>
        <time>2012-09-16T11:35:29Z</time>
      </trkpt>
      <trkpt lat="59.9528277" lon="17.7253343">
        <ele>40.5128</ele>
        <time>2012-09-16T11:35:33Z</time>
      </trkpt>
      <trkpt lat="59.9529246" lon="17.7251837">
        <ele>40.9934</ele>
        <time>2012-09-16T11:35:38Z</time>
      </trkpt>
      <trkpt lat="59.953016" lon="17.7250195">
        <ele>40.0321</ele>
        <time>2012-09-16T11:35:43Z</time>
      </trkpt>
      <trkpt lat="59.9531105" lon="17.7248764">
        <ele>38.5901</ele>
        <time>2012-09-16T11:35:48Z</time>
      </trkpt>
      <trkpt lat="59.9532126" lon="17.7247379">
        <ele>39.0707</ele>
        <time>2012-09-16T11:35:53Z</time>
      </trkpt>
      <trkpt lat="59.9532915" lon="17.7245002">
        <ele>42.4354</ele>
        <time>2012-09-16T11:35:58Z</time>
      </trkpt>
      <trkpt lat="59.9533931" lon="17.7243103">
        <ele>43.3966</ele>
        <time>2012-09-16T11:36:04Z</time>
      </trkpt>
      <trkpt lat="59.9534889" lon="17.7241766">
        <ele>44.358</ele>
        <time>2012-09-16T11:36:10Z</time>
      </trkpt>
      <trkpt lat="59.9535184" lon="17.7241113">
        <ele>44.8386</ele>
        <time>2012-09-16T11:36:12Z</time>
      </trkpt>
      <trkpt lat="59.9536168" lon="17.7239899">
        <ele>44.358</ele>
        <time>2012-09-16T11:36:17Z</time>
      </trkpt>
      <trkpt lat="59.9536691" lon="17.7239341">
        <ele>45.3192</ele>
        <time>2012-09-16T11:36:20Z</time>
      </trkpt>
      <trkpt lat="59.9537365" lon="17.7237885">
        <ele>44.8386</ele>
        <time>2012-09-16T11:36:25Z</time>
      </trkpt>
      <trkpt lat="59.9538171" lon="17.7236255">
        <ele>43.8773</ele>
        <time>2012-09-16T11:36:30Z</time>
      </trkpt>
      <trkpt lat="59.9538699" lon="17.7235073">
        <ele>44.358</ele>
        <time>2012-09-16T11:36:35Z</time>
      </trkpt>
      <trkpt lat="59.9539509" lon="17.7233732">
        <ele>44.8386</ele>
        <time>2012-09-16T11:36:40Z</time>
      </trkpt>
      <trkpt lat="59.9540363" lon="17.723331">
        <ele>43.8773</ele>
        <time>2012-09-16T11:36:44Z</time>
      </trkpt>
      <trkpt lat="59.9541224" lon="17.7232689">
        <ele>45.3192</ele>
        <time>2012-09-16T11:36:48Z</time>
      </trkpt>
      <trkpt lat="59.9541995" lon="17.7232319">
        <ele>45.7999</ele>
        <time>2012-09-16T11:36:52Z</time>
      </trkpt>
      <trkpt lat="59.9542177" lon="17.7232178">
        <ele>46.2806</ele>
        <time>2012-09-16T11:36:53Z</time>
      </trkpt>
      <trkpt lat="59.9543098" lon="17.7232452">
        <ele>49.6453</ele>
        <time>2012-09-16T11:36:57Z</time>
      </trkpt>
      <trkpt lat="59.9545001" lon="17.7233001">
        <ele>53.9712</ele>
        <time>2012-09-16T11:37:04Z</time>
      </trkpt>
      <trkpt lat="59.9545823" lon="17.7233799">
        <ele>52.0486</ele>
        <time>2012-09-16T11:37:09Z</time>
      </trkpt>
      <trkpt lat="59.9546626" lon="17.7234364">
        <ele>51.0872</ele>
        <time>2012-09-16T11:37:13Z</time>
      </trkpt>
      <trkpt lat="59.9547593" lon="17.7235052">
        <ele>50.126</ele>
        <time>2012-09-16T11:37:18Z</time>
      </trkpt>
      <trkpt lat="59.9548689" lon="17.7235861">
        <ele>50.6066</ele>
        <time>2012-09-16T11:37:23Z</time>
      </trkpt>
      <trkpt lat="59.9549424" lon="17.7236249">
        <ele>50.6066</ele>
        <time>2012-09-16T11:37:27Z</time>
      </trkpt>
      <trkpt lat="59.9550411" lon="17.723583">
        <ele>51.0872</ele>
        <time>2012-09-16T11:37:32Z</time>
      </trkpt>
      <trkpt lat="59.95516" lon="17.7234986">
        <ele>52.5292</ele>
        <time>2012-09-16T11:37:37Z</time>
      </trkpt>
      <trkpt lat="59.9552611" lon="17.7234084">
        <ele>54.4518</ele>
        <time>2012-09-16T11:37:42Z</time>
      </trkpt>
      <trkpt lat="59.9553827" lon="17.7233042">
        <ele>55.4131</ele>
        <time>2012-09-16T11:37:47Z</time>
      </trkpt>
      <trkpt lat="59.9554897" lon="17.7232986">
        <ele>53.0098</ele>
        <time>2012-09-16T11:37:52Z</time>
      </trkpt>
      <trkpt lat="59.9555879" lon="17.7233847">
        <ele>51.5679</ele>
        <time>2012-09-16T11:37:57Z</time>
      </trkpt>
      <trkpt lat="59.9557329" lon="17.7234779">
        <ele>49.6453</ele>
        <time>2012-09-16T11:38:03Z</time>
      </trkpt>
      <trkpt lat="59.9557526" lon="17.7234976">
        <ele>49.6453</ele>
        <time>2012-09-16T11:38:04Z</time>
      </trkpt>
      <trkpt lat="59.9558272" lon="17.7236157">
        <ele>49.1646</ele>
        <time>2012-09-16T11:38:08Z</time>
      </trkpt>
      <trkpt lat="59.9559034" lon="17.7236823">
        <ele>49.1646</ele>
        <time>2012-09-16T11:38:12Z</time>
      </trkpt>
      <trkpt lat="59.9559888" lon="17.7235465">
        <ele>48.684</ele>
        <time>2012-09-16T11:38:17Z</time>
      </trkpt>
      <trkpt lat="59.9560693" lon="17.7233275">
        <ele>47.7225</ele>
        <time>2012-09-16T11:38:23Z</time>
      </trkpt>
      <trkpt lat="59.956116" lon="17.7231107">
        <ele>49.6453</ele>
        <time>2012-09-16T11:38:28Z</time>
      </trkpt>
      <trkpt lat="59.9561234" lon="17.7229717">
        <ele>49.6453</ele>
        <time>2012-09-16T11:38:31Z</time>
      </trkpt>
      <trkpt lat="59.9560697" lon="17.7227604">
        <ele>50.126</ele>
        <time>2012-09-16T11:38:36Z</time>
      </trkpt>
      <trkpt lat="59.956037" lon="17.7225972">
        <ele>50.126</ele>
        <time>2012-09-16T11:38:40Z</time>
      </trkpt>
      <trkpt lat="59.9559867" lon="17.7223822">
        <ele>49.6453</ele>
        <time>2012-09-16T11:38:45Z</time>
      </trkpt>
      <trkpt lat="59.9559344" lon="17.7221895">
        <ele>51.0872</ele>
        <time>2012-09-16T11:38:49Z</time>
      </trkpt>
      <trkpt lat="59.9558998" lon="17.7220101">
        <ele>52.0486</ele>
        <time>2012-09-16T11:38:53Z</time>
      </trkpt>
      <trkpt lat="59.9559338" lon="17.7217242">
        <ele>53.9712</ele>
        <time>2012-09-16T11:38:59Z</time>
      </trkpt>
      <trkpt lat="59.955986" lon="17.7215245">
        <ele>53.4905</ele>
        <time>2012-09-16T11:39:04Z</time>
      </trkpt>
      <trkpt lat="59.9559355" lon="17.7212793">
        <ele>53.9712</ele>
        <time>2012-09-16T11:39:10Z</time>
      </trkpt>
      <trkpt lat="59.9557893" lon="17.7211887">
        <ele>55.8938</ele>
        <time>2012-09-16T11:39:16Z</time>
      </trkpt>
      <trkpt lat="59.9557733" lon="17.7211783">
        <ele>55.8938</ele>
        <time>2012-09-16T11:39:17Z</time>
      </trkpt>
      <trkpt lat="59.9557111" lon="17.7212408">
        <ele>57.3358</ele>
        <time>2012-09-16T11:39:21Z</time>
      </trkpt>
      <trkpt lat="59.9556194" lon="17.7213544">
        <ele>58.7777</ele>
        <time>2012-09-16T11:39:26Z</time>
      </trkpt>
      <trkpt lat="59.955511" lon="17.7213887">
        <ele>59.7391</ele>
        <time>2012-09-16T11:39:31Z</time>
      </trkpt>
      <trkpt lat="59.9553749" lon="17.7214256">
        <ele>62.6229</ele>
        <time>2012-09-16T11:39:36Z</time>
      </trkpt>
      <trkpt lat="59.9552711" lon="17.7214051">
        <ele>64.5457</ele>
        <time>2012-09-16T11:39:41Z</time>
      </trkpt>
      <trkpt lat="59.9552212" lon="17.7214037">
        <ele>67.9103</ele>
        <time>2012-09-16T11:39:44Z</time>
      </trkpt>
      <trkpt lat="59.9551087" lon="17.7213798">
        <ele>71.7555</ele>
        <time>2012-09-16T11:39:49Z</time>
      </trkpt>
      <trkpt lat="59.9549584" lon="17.7213787">
        <ele>71.2749</ele>
        <time>2012-09-16T11:39:54Z</time>
      </trkpt>
      <trkpt lat="59.9548683" lon="17.7213431">
        <ele>71.7555</ele>
        <time>2012-09-16T11:39:58Z</time>
      </trkpt>
      <trkpt lat="59.9547961" lon="17.7212175">
        <ele>68.8716</ele>
        <time>2012-09-16T11:40:02Z</time>
      </trkpt>
      <trkpt lat="59.9547717" lon="17.7210226">
        <ele>67.9103</ele>
        <time>2012-09-16T11:40:06Z</time>
      </trkpt>
      <trkpt lat="59.9547729" lon="17.7208088">
        <ele>67.4297</ele>
        <time>2012-09-16T11:40:10Z</time>
      </trkpt>
      <trkpt lat="59.9548007" lon="17.7207063">
        <ele>67.4297</ele>
        <time>2012-09-16T11:40:12Z</time>
      </trkpt>
      <trkpt lat="59.9549325" lon="17.7204571">
        <ele>65.9877</ele>
        <time>2012-09-16T11:40:19Z</time>
      </trkpt>
      <trkpt lat="59.9550452" lon="17.7203319">
        <ele>67.9103</ele>
        <time>2012-09-16T11:40:24Z</time>
      </trkpt>
      <trkpt lat="59.9551347" lon="17.7202289">
        <ele>68.8716</ele>
        <time>2012-09-16T11:40:28Z</time>
      </trkpt>
      <trkpt lat="59.9552234" lon="17.7201086">
        <ele>68.3909</ele>
        <time>2012-09-16T11:40:32Z</time>
      </trkpt>
      <trkpt lat="59.9553305" lon="17.7199626">
        <ele>67.4297</ele>
        <time>2012-09-16T11:40:37Z</time>
      </trkpt>
      <trkpt lat="59.9554133" lon="17.7198518">
        <ele>67.4297</ele>
        <time>2012-09-16T11:40:41Z</time>
      </trkpt>
      <trkpt lat="59.9555312" lon="17.7198213">
        <ele>66.949</ele>
        <time>2012-09-16T11:40:46Z</time>
      </trkpt>
      <trkpt lat="59.9555548" lon="17.719814">
        <ele>66.949</ele>
        <time>2012-09-16T11:40:47Z</time>
      </trkpt>
      <trkpt lat="59.9556892" lon="17.7197305">
        <ele>65.0264</ele>
        <time>2012-09-16T11:40:53Z</time>
      </trkpt>
      <trkpt lat="59.9558124" lon="17.7195806">
        <ele>63.1036</ele>
        <time>2012-09-16T11:40:58Z</time>
      </trkpt>
      <trkpt lat="59.955834" lon="17.7195711">
        <ele>62.6229</ele>
        <time>2012-09-16T11:40:59Z</time>
      </trkpt>
      <trkpt lat="59.9559163" lon="17.7194893">
        <ele>61.181</ele>
        <time>2012-09-16T11:41:04Z</time>
      </trkpt>
      <trkpt lat="59.9560255" lon="17.7193747">
        <ele>59.7391</ele>
        <time>2012-09-16T11:41:10Z</time>
      </trkpt>
      <trkpt lat="59.9561079" lon="17.7192729">
        <ele>60.7003</ele>
        <time>2012-09-16T11:41:14Z</time>
      </trkpt>
      <trkpt lat="59.9561939" lon="17.7191416">
        <ele>58.2971</ele>
        <time>2012-09-16T11:41:19Z</time>
      </trkpt>
      <trkpt lat="59.9562437" lon="17.7190002">
        <ele>58.2971</ele>
        <time>2012-09-16T11:41:23Z</time>
      </trkpt>
      <trkpt lat="59.9562633" lon="17.7189163">
        <ele>58.2971</ele>
        <time>2012-09-16T11:41:25Z</time>
      </trkpt>
      <trkpt lat="59.9562621" lon="17.7186887">
        <ele>57.3358</ele>
        <time>2012-09-16T11:41:30Z</time>
      </trkpt>
      <trkpt lat="59.9562468" lon="17.7185876">
        <ele>57.3358</ele>
        <time>2012-09-16T11:41:32Z</time>
      </trkpt>
      <trkpt lat="59.9562291" lon="17.718479">
        <ele>56.8551</ele>
        <time>2012-09-16T11:41:34Z</time>
      </trkpt>
      <trkpt lat="59.9561001" lon="17.7182563">
        <ele>58.2971</ele>
        <time>2012-09-16T11:41:40Z</time>
      </trkpt>
      <trkpt lat="59.956072" lon="17.7181874">
        <ele>59.2584</ele>
        <time>2012-09-16T11:41:42Z</time>
      </trkpt>
      <trkpt lat="59.955998" lon="17.7180438">
        <ele>61.6617</ele>
        <time>2012-09-16T11:41:47Z</time>
      </trkpt>
      <trkpt lat="59.9559008" lon="17.7179117">
        <ele>62.6229</ele>
        <time>2012-09-16T11:41:51Z</time>
      </trkpt>
      <trkpt lat="59.9558404" lon="17.7178083">
        <ele>62.6229</ele>
        <time>2012-09-16T11:41:54Z</time>
      </trkpt>
      <trkpt lat="59.9557844" lon="17.7176642">
        <ele>61.6617</ele>
        <time>2012-09-16T11:41:58Z</time>
      </trkpt>
      <trkpt lat="59.9557342" lon="17.7174957">
        <ele>59.7391</ele>
        <time>2012-09-16T11:42:03Z</time>
      </trkpt>
      <trkpt lat="59.9557018" lon="17.7174321">
        <ele>59.2584</ele>
        <time>2012-09-16T11:42:05Z</time>
      </trkpt>
      <trkpt lat="59.9556249" lon="17.7171612">
        <ele>56.3745</ele>
        <time>2012-09-16T11:42:11Z</time>
      </trkpt>
      <trkpt lat="59.9555576" lon="17.7169436">
        <ele>54.4518</ele>
        <time>2012-09-16T11:42:16Z</time>
      </trkpt>
      <trkpt lat="59.9555159" lon="17.716722">
        <ele>53.0098</ele>
        <time>2012-09-16T11:42:21Z</time>
      </trkpt>
      <trkpt lat="59.9554907" lon="17.716524">
        <ele>50.126</ele>
        <time>2012-09-16T11:42:25Z</time>
      </trkpt>
      <trkpt lat="59.9554961" lon="17.7162722">
        <ele>48.684</ele>
        <time>2012-09-16T11:42:30Z</time>
      </trkpt>
      <trkpt lat="59.9554759" lon="17.7160611">
        <ele>46.2806</ele>
        <time>2012-09-16T11:42:34Z</time>
      </trkpt>
      <trkpt lat="59.9554645" lon="17.7160128">
        <ele>45.7999</ele>
        <time>2012-09-16T11:42:35Z</time>
      </trkpt>
      <trkpt lat="59.9554613" lon="17.7158112">
        <ele>43.3966</ele>
        <time>2012-09-16T11:42:40Z</time>
      </trkpt>
      <trkpt lat="59.9554448" lon="17.7156103">
        <ele>41.9547</ele>
        <time>2012-09-16T11:42:45Z</time>
      </trkpt>
      <trkpt lat="59.9554468" lon="17.7153304">
        <ele>42.916</ele>
        <time>2012-09-16T11:42:51Z</time>
      </trkpt>
      <trkpt lat="59.9554475" lon="17.715225">
        <ele>43.3966</ele>
        <time>2012-09-16T11:42:53Z</time>
      </trkpt>
      <trkpt lat="59.9553944" lon="17.7149979">
        <ele>42.4354</ele>
        <time>2012-09-16T11:42:58Z</time>
      </trkpt>
      <trkpt lat="59.9553537" lon="17.7148405">
        <ele>42.4354</ele>
        <time>2012-09-16T11:43:01Z</time>
      </trkpt>
      <trkpt lat="59.9553261" lon="17.7146836">
        <ele>42.916</ele>
        <time>2012-09-16T11:43:05Z</time>
      </trkpt>
      <trkpt lat="59.9552604" lon="17.714437">
        <ele>43.8773</ele>
        <time>2012-09-16T11:43:11Z</time>
      </trkpt>
      <trkpt lat="59.9552132" lon="17.714282">
        <ele>43.8773</ele>
        <time>2012-09-16T11:43:15Z</time>
      </trkpt>
      <trkpt lat="59.9552053" lon="17.7142342">
        <ele>43.8773</ele>
        <time>2012-09-16T11:43:16Z</time>
      </trkpt>
      <trkpt lat="59.9551088" lon="17.7142412">
        <ele>43.3966</ele>
        <time>2012-09-16T11:43:21Z</time>
      </trkpt>
      <trkpt lat="59.9550428" lon="17.7143753">
        <ele>44.358</ele>
        <time>2012-09-16T11:43:27Z</time>
      </trkpt>
      <trkpt lat="59.9549713" lon="17.7145048">
        <ele>43.8773</ele>
        <time>2012-09-16T11:43:32Z</time>
      </trkpt>
      <trkpt lat="59.9549383" lon="17.7145654">
        <ele>43.3966</ele>
        <time>2012-09-16T11:43:34Z</time>
      </trkpt>
      <trkpt lat="59.9548268" lon="17.7147539">
        <ele>43.3966</ele>
        <time>2012-09-16T11:43:39Z</time>
      </trkpt>
      <trkpt lat="59.9547037" lon="17.7147899">
        <ele>43.3966</ele>
        <time>2012-09-16T11:43:43Z</time>
      </trkpt>
      <trkpt lat="59.9545724" lon="17.7147554">
        <ele>43.8773</ele>
        <time>2012-09-16T11:43:48Z</time>
      </trkpt>
      <trkpt lat="59.9544545" lon="17.7147918">
        <ele>45.7999</ele>
        <time>2012-09-16T11:43:52Z</time>
      </trkpt>
      <trkpt lat="59.9544003" lon="17.7147602">
        <ele>45.7999</ele>
        <time>2012-09-16T11:43:56Z</time>
      </trkpt>
      <trkpt lat="59.9543218" lon="17.7147766">
        <ele>46.7612</ele>
        <time>2012-09-16T11:44:00Z</time>
      </trkpt>
      <trkpt lat="59.9541996" lon="17.7148577">
        <ele>49.1646</ele>
        <time>2012-09-16T11:44:05Z</time>
      </trkpt>
      <trkpt lat="59.9541466" lon="17.7148882">
        <ele>50.6066</ele>
        <time>2012-09-16T11:44:08Z</time>
      </trkpt>
      <trkpt lat="59.9540757" lon="17.7148873">
        <ele>52.5292</ele>
        <time>2012-09-16T11:44:12Z</time>
      </trkpt>
      <trkpt lat="59.9539918" lon="17.7148898">
        <ele>53.9712</ele>
        <time>2012-09-16T11:44:17Z</time>
      </trkpt>
      <trkpt lat="59.9539121" lon="17.714941">
        <ele>54.4518</ele>
        <time>2012-09-16T11:44:21Z</time>
      </trkpt>
      <trkpt lat="59.9537539" lon="17.7150047">
        <ele>55.8938</ele>
        <time>2012-09-16T11:44:26Z</time>
      </trkpt>
      <trkpt lat="59.9536904" lon="17.7150623">
        <ele>57.3358</ele>
        <time>2012-09-16T11:44:29Z</time>
      </trkpt>
      <trkpt lat="59.9536044" lon="17.71516">
        <ele>57.3358</ele>
        <time>2012-09-16T11:44:34Z</time>
      </trkpt>
      <trkpt lat="59.9535276" lon="17.7152268">
        <ele>58.2971</ele>
        <time>2012-09-16T11:44:39Z</time>
      </trkpt>
      <trkpt lat="59.9534636" lon="17.7153086">
        <ele>56.8551</ele>
        <time>2012-09-16T11:44:43Z</time>
      </trkpt>
      <trkpt lat="59.953414" lon="17.7154195">
        <ele>56.3745</ele>
        <time>2012-09-16T11:44:47Z</time>
      </trkpt>
      <trkpt lat="59.9532878" lon="17.7155513">
        <ele>53.9712</ele>
        <time>2012-09-16T11:44:52Z</time>
      </trkpt>
      <trkpt lat="59.9532143" lon="17.7156529">
        <ele>51.0872</ele>
        <time>2012-09-16T11:44:56Z</time>
      </trkpt>
      <trkpt lat="59.953135" lon="17.7157077">
        <ele>50.126</ele>
        <time>2012-09-16T11:44:59Z</time>
      </trkpt>
      <trkpt lat="59.9530637" lon="17.7158247">
        <ele>51.0872</ele>
        <time>2012-09-16T11:45:03Z</time>
      </trkpt>
      <trkpt lat="59.9530492" lon="17.716017">
        <ele>54.4518</ele>
        <time>2012-09-16T11:45:07Z</time>
      </trkpt>
      <trkpt lat="59.9529971" lon="17.7162356">
        <ele>56.3745</ele>
        <time>2012-09-16T11:45:12Z</time>
      </trkpt>
      <trkpt lat="59.9529636" lon="17.7164271">
        <ele>57.3358</ele>
        <time>2012-09-16T11:45:16Z</time>
      </trkpt>
      <trkpt lat="59.9529558" lon="17.7166068">
        <ele>63.5844</ele>
        <time>2012-09-16T11:45:20Z</time>
      </trkpt>
      <trkpt lat="59.9529791" lon="17.7167013">
        <ele>65.5071</ele>
        <time>2012-09-16T11:45:22Z</time>
      </trkpt>
      <trkpt lat="59.9529765" lon="17.7169652">
        <ele>65.5071</ele>
        <time>2012-09-16T11:45:28Z</time>
      </trkpt>
      <trkpt lat="59.9529544" lon="17.7171634">
        <ele>65.9877</ele>
        <time>2012-09-16T11:45:33Z</time>
      </trkpt>
      <trkpt lat="59.9528952" lon="17.7173885">
        <ele>62.6229</ele>
        <time>2012-09-16T11:45:38Z</time>
      </trkpt>
      <trkpt lat="59.952848" lon="17.7175651">
        <ele>61.6617</ele>
        <time>2012-09-16T11:45:42Z</time>
      </trkpt>
      <trkpt lat="59.9527992" lon="17.7177138">
        <ele>60.7003</ele>
        <time>2012-09-16T11:45:45Z</time>
      </trkpt>
      <trkpt lat="59.9526953" lon="17.7179427">
        <ele>55.8938</ele>
        <time>2012-09-16T11:45:51Z</time>
      </trkpt>
      <trkpt lat="59.9526341" lon="17.7181119">
        <ele>53.9712</ele>
        <time>2012-09-16T11:45:56Z</time>
      </trkpt>
      <trkpt lat="59.9525992" lon="17.7182868">
        <ele>54.9324</ele>
        <time>2012-09-16T11:46:00Z</time>
      </trkpt>
      <trkpt lat="59.9525446" lon="17.7185392">
        <ele>55.4131</ele>
        <time>2012-09-16T11:46:06Z</time>
      </trkpt>
      <trkpt lat="59.9525135" lon="17.7186781">
        <ele>56.8551</ele>
        <time>2012-09-16T11:46:09Z</time>
      </trkpt>
      <trkpt lat="59.9524704" lon="17.7188551">
        <ele>56.8551</ele>
        <time>2012-09-16T11:46:13Z</time>
      </trkpt>
      <trkpt lat="59.9524575" lon="17.7190892">
        <ele>60.7003</ele>
        <time>2012-09-16T11:46:18Z</time>
      </trkpt>
      <trkpt lat="59.952407" lon="17.7193379">
        <ele>58.7777</ele>
        <time>2012-09-16T11:46:23Z</time>
      </trkpt>
      <trkpt lat="59.9524472" lon="17.7195513">
        <ele>61.6617</ele>
        <time>2012-09-16T11:46:27Z</time>
      </trkpt>
      <trkpt lat="59.9524602" lon="17.7196761">
        <ele>59.7391</ele>
        <time>2012-09-16T11:46:30Z</time>
      </trkpt>
      <trkpt lat="59.9525191" lon="17.7198721">
        <ele>60.2197</ele>
        <time>2012-09-16T11:46:35Z</time>
      </trkpt>
      <trkpt lat="59.9526015" lon="17.7201318">
        <ele>64.5457</ele>
        <time>2012-09-16T11:46:41Z</time>
      </trkpt>
      <trkpt lat="59.9526313" lon="17.7203336">
        <ele>69.3523</ele>
        <time>2012-09-16T11:46:45Z</time>
      </trkpt>
      <trkpt lat="59.9525852" lon="17.7205795">
        <ele>65.9877</ele>
        <time>2012-09-16T11:46:50Z</time>
      </trkpt>
      <trkpt lat="59.9525533" lon="17.7207825">
        <ele>63.1036</ele>
        <time>2012-09-16T11:46:55Z</time>
      </trkpt>
      <trkpt lat="59.9525605" lon="17.720829">
        <ele>64.0651</ele>
        <time>2012-09-16T11:46:56Z</time>
      </trkpt>
      <trkpt lat="59.9525533" lon="17.720911">
        <ele>64.0651</ele>
        <time>2012-09-16T11:46:58Z</time>
      </trkpt>
      <trkpt lat="59.9525409" lon="17.7212053">
        <ele>65.0264</ele>
        <time>2012-09-16T11:47:04Z</time>
      </trkpt>
      <trkpt lat="59.9525424" lon="17.7212892">
        <ele>65.5071</ele>
        <time>2012-09-16T11:47:06Z</time>
      </trkpt>
      <trkpt lat="59.9525821" lon="17.7215192">
        <ele>65.9877</ele>
        <time>2012-09-16T11:47:11Z</time>
      </trkpt>
      <trkpt lat="59.9526107" lon="17.7217815">
        <ele>65.5071</ele>
        <time>2012-09-16T11:47:17Z</time>
      </trkpt>
      <trkpt lat="59.952637" lon="17.7220191">
        <ele>67.4297</ele>
        <time>2012-09-16T11:47:22Z</time>
      </trkpt>
      <trkpt lat="59.9526284" lon="17.7222709">
        <ele>65.9877</ele>
        <time>2012-09-16T11:47:27Z</time>
      </trkpt>
      <trkpt lat="59.9525575" lon="17.7224673">
        <ele>61.6617</ele>
        <time>2012-09-16T11:47:32Z</time>
      </trkpt>
      <trkpt lat="59.9525479" lon="17.7225084">
        <ele>60.7003</ele>
        <time>2012-09-16T11:47:33Z</time>
      </trkpt>
      <trkpt lat="59.9525482" lon="17.7226179">
        <ele>60.7003</ele>
        <time>2012-09-16T11:47:35Z</time>
      </trkpt>
      <trkpt lat="59.9525027" lon="17.7228437">
        <ele>59.7391</ele>
        <time>2012-09-16T11:47:40Z</time>
      </trkpt>
      <trkpt lat="59.952493" lon="17.7228902">
        <ele>57.8165</ele>
        <time>2012-09-16T11:47:41Z</time>
      </trkpt>
      <trkpt lat="59.95255" lon="17.7230971">
        <ele>55.4131</ele>
        <time>2012-09-16T11:47:45Z</time>
      </trkpt>
      <trkpt lat="59.9525865" lon="17.7232798">
        <ele>56.3745</ele>
        <time>2012-09-16T11:47:49Z</time>
      </trkpt>
      <trkpt lat="59.9526191" lon="17.7233421">
        <ele>56.8551</ele>
        <time>2012-09-16T11:47:51Z</time>
      </trkpt>
      <trkpt lat="59.9526717" lon="17.7235647">
        <ele>55.4131</ele>
        <time>2012-09-16T11:47:57Z</time>
      </trkpt>
      <trkpt lat="59.9526777" lon="17.723611">
        <ele>54.4518</ele>
        <time>2012-09-16T11:47:58Z</time>
      </trkpt>
      <trkpt lat="59.9527009" lon="17.7238171">
        <ele>51.0872</ele>
        <time>2012-09-16T11:48:03Z</time>
      </trkpt>
      <trkpt lat="59.9527222" lon="17.7239948">
        <ele>48.2034</ele>
        <time>2012-09-16T11:48:07Z</time>
      </trkpt>
      <trkpt lat="59.952666" lon="17.7241625">
        <ele>44.358</ele>
        <time>2012-09-16T11:48:11Z</time>
      </trkpt>
      <trkpt lat="59.9525925" lon="17.7243838">
        <ele>42.916</ele>
        <time>2012-09-16T11:48:16Z</time>
      </trkpt>
      <trkpt lat="59.9525476" lon="17.724466">
        <ele>41.9547</ele>
        <time>2012-09-16T11:48:18Z</time>
      </trkpt>
      <trkpt lat="59.9524642" lon="17.7246694">
        <ele>42.916</ele>
        <time>2012-09-16T11:48:23Z</time>
      </trkpt>
      <trkpt lat="59.952373" lon="17.7247879">
        <ele>42.4354</ele>
        <time>2012-09-16T11:48:27Z</time>
      </trkpt>
      <trkpt lat="59.9522554" lon="17.7249677">
        <ele>40.9934</ele>
        <time>2012-09-16T11:48:32Z</time>
      </trkpt>
      <trkpt lat="59.9522262" lon="17.7249987">
        <ele>40.0321</ele>
        <time>2012-09-16T11:48:33Z</time>
      </trkpt>
      <trkpt lat="59.9521509" lon="17.7251062">
        <ele>39.5513</ele>
        <time>2012-09-16T11:48:36Z</time>
      </trkpt>
      <trkpt lat="59.9521278" lon="17.7251442">
        <ele>39.0707</ele>
        <time>2012-09-16T11:48:37Z</time>
      </trkpt>
      <trkpt lat="59.9520586" lon="17.7252778">
        <ele>37.6287</ele>
        <time>2012-09-16T11:48:41Z</time>
      </trkpt>
      <trkpt lat="59.9519576" lon="17.7254421">
        <ele>35.7061</ele>
        <time>2012-09-16T11:48:46Z</time>
      </trkpt>
      <trkpt lat="59.9519074" lon="17.7255766">
        <ele>34.7449</ele>
        <time>2012-09-16T11:48:49Z</time>
      </trkpt>
      <trkpt lat="59.951842" lon="17.7257243">
        <ele>33.7834</ele>
        <time>2012-09-16T11:48:54Z</time>
      </trkpt>
      <trkpt lat="59.9517772" lon="17.7258393">
        <ele>34.7449</ele>
        <time>2012-09-16T11:48:58Z</time>
      </trkpt>
      <trkpt lat="59.9516731" lon="17.7259661">
        <ele>37.1481</ele>
        <time>2012-09-16T11:49:03Z</time>
      </trkpt>
      <trkpt lat="59.9515992" lon="17.7260397">
        <ele>37.6287</ele>
        <time>2012-09-16T11:49:07Z</time>
      </trkpt>
      <trkpt lat="59.95154" lon="17.7261891">
        <ele>37.6287</ele>
        <time>2012-09-16T11:49:11Z</time>
      </trkpt>
      <trkpt lat="59.9514756" lon="17.7263508">
        <ele>37.6287</ele>
        <time>2012-09-16T11:49:15Z</time>
      </trkpt>
      <trkpt lat="59.9514209" lon="17.7264775">
        <ele>38.1094</ele>
        <time>2012-09-16T11:49:18Z</time>
      </trkpt>
      <trkpt lat="59.9513566" lon="17.7266542">
        <ele>39.5513</ele>
        <time>2012-09-16T11:49:22Z</time>
      </trkpt>
      <trkpt lat="59.9513456" lon="17.7266939">
        <ele>40.0321</ele>
        <time>2012-09-16T11:49:23Z</time>
      </trkpt>
      <trkpt lat="59.9513717" lon="17.7268856">
        <ele>40.9934</ele>
        <time>2012-09-16T11:49:27Z</time>
      </trkpt>
      <trkpt lat="59.9514199" lon="17.7270593">
        <ele>44.8386</ele>
        <time>2012-09-16T11:49:31Z</time>
      </trkpt>
      <trkpt lat="59.951448" lon="17.7271548">
        <ele>44.358</ele>
        <time>2012-09-16T11:49:33Z</time>
      </trkpt>
      <trkpt lat="59.9514733" lon="17.7274024">
        <ele>46.2806</ele>
        <time>2012-09-16T11:49:38Z</time>
      </trkpt>
      <trkpt lat="59.9514904" lon="17.7275073">
        <ele>46.7612</ele>
        <time>2012-09-16T11:49:40Z</time>
      </trkpt>
      <trkpt lat="59.9515422" lon="17.727782">
        <ele>48.2034</ele>
        <time>2012-09-16T11:49:46Z</time>
      </trkpt>
      <trkpt lat="59.9515557" lon="17.7278193">
        <ele>47.7225</ele>
        <time>2012-09-16T11:49:47Z</time>
      </trkpt>
      <trkpt lat="59.9515884" lon="17.72789">
        <ele>47.7225</ele>
        <time>2012-09-16T11:49:49Z</time>
      </trkpt>
      <trkpt lat="59.9517146" lon="17.7279515">
        <ele>45.7999</ele>
        <time>2012-09-16T11:49:56Z</time>
      </trkpt>
      <trkpt lat="59.9518732" lon="17.7278659">
        <ele>45.3192</ele>
        <time>2012-09-16T11:50:03Z</time>
      </trkpt>
      <trkpt lat="59.9519695" lon="17.7277058">
        <ele>47.2418</ele>
        <time>2012-09-16T11:50:08Z</time>
      </trkpt>
      <trkpt lat="59.952041" lon="17.7274832">
        <ele>45.7999</ele>
        <time>2012-09-16T11:50:13Z</time>
      </trkpt>
      <trkpt lat="59.9520643" lon="17.7273903">
        <ele>44.358</ele>
        <time>2012-09-16T11:50:15Z</time>
      </trkpt>
      <trkpt lat="59.9521138" lon="17.7271553">
        <ele>42.916</ele>
        <time>2012-09-16T11:50:20Z</time>
      </trkpt>
      <trkpt lat="59.9521249" lon="17.7270692">
        <ele>42.4354</ele>
        <time>2012-09-16T11:50:22Z</time>
      </trkpt>
      <trkpt lat="59.9521763" lon="17.7268252">
        <ele>42.916</ele>
        <time>2012-09-16T11:50:28Z</time>
      </trkpt>
      <trkpt lat="59.9522332" lon="17.726639">
        <ele>42.916</ele>
        <time>2012-09-16T11:50:33Z</time>
      </trkpt>
      <trkpt lat="59.9523175" lon="17.7264024">
        <ele>42.916</ele>
        <time>2012-09-16T11:50:40Z</time>
      </trkpt>
      <trkpt lat="59.9523876" lon="17.7262298">
        <ele>42.916</ele>
        <time>2012-09-16T11:50:45Z</time>
      </trkpt>
      <trkpt lat="59.9524611" lon="17.7260705">
        <ele>43.3966</ele>
        <time>2012-09-16T11:50:50Z</time>
      </trkpt>
      <trkpt lat="59.9525192" lon="17.7259385">
        <ele>42.916</ele>
        <time>2012-09-16T11:50:54Z</time>
      </trkpt>
      <trkpt lat="59.952547" lon="17.7258677">
        <ele>42.916</ele>
        <time>2012-09-16T11:50:56Z</time>
      </trkpt>
      <trkpt lat="59.9526148" lon="17.7257405">
        <ele>44.358</ele>
        <time>2012-09-16T11:51:00Z</time>
      </trkpt>
      <trkpt lat="59.9527121" lon="17.7255737">
        <ele>46.7612</ele>
        <time>2012-09-16T11:51:05Z</time>
      </trkpt>
      <trkpt lat="59.9527956" lon="17.7254106">
        <ele>46.2806</ele>
        <time>2012-09-16T11:51:10Z</time>
      </trkpt>
      <trkpt lat="59.9529136" lon="17.7252365">
        <ele>43.8773</ele>
        <time>2012-09-16T11:51:17Z</time>
      </trkpt>
      <trkpt lat="59.9529976" lon="17.7251142">
        <ele>41.474</ele>
        <time>2012-09-16T11:51:22Z</time>
      </trkpt>
      <trkpt lat="59.953089" lon="17.7249619">
        <ele>40.9934</ele>
        <time>2012-09-16T11:51:27Z</time>
      </trkpt>
      <trkpt lat="59.953135" lon="17.7249047">
        <ele>40.5128</ele>
        <time>2012-09-16T11:51:29Z</time>
      </trkpt>
      <trkpt lat="59.953262" lon="17.7247919">
        <ele>43.3966</ele>
        <time>2012-09-16T11:51:35Z</time>
      </trkpt>
      <trkpt lat="59.9533692" lon="17.7246709">
        <ele>49.6453</ele>
        <time>2012-09-16T11:51:40Z</time>
      </trkpt>
      <trkpt lat="59.9534254" lon="17.7245116">
        <ele>52.5292</ele>
        <time>2012-09-16T11:51:44Z</time>
      </trkpt>
      <trkpt lat="59.9534909" lon="17.7243306">
        <ele>54.4518</ele>
        <time>2012-09-16T11:51:49Z</time>
      </trkpt>
      <trkpt lat="59.9535591" lon="17.7241656">
        <ele>55.4131</ele>
        <time>2012-09-16T11:51:54Z</time>
      </trkpt>
      <trkpt lat="59.9536462" lon="17.7239829">
        <ele>55.8938</ele>
        <time>2012-09-16T11:52:00Z</time>
      </trkpt>
      <trkpt lat="59.9536583" lon="17.7239482">
        <ele>55.8938</ele>
        <time>2012-09-16T11:52:01Z</time>
      </trkpt>
      <trkpt lat="59.9537275" lon="17.7237817">
        <ele>53.9712</ele>
        <time>2012-09-16T11:52:06Z</time>
      </trkpt>
      <trkpt lat="59.9538098" lon="17.72368">
        <ele>53.0098</ele>
        <time>2012-09-16T11:52:10Z</time>
      </trkpt>
      <trkpt lat="59.953921" lon="17.7234841">
        <ele>53.4905</ele>
        <time>2012-09-16T11:52:16Z</time>
      </trkpt>
      <trkpt lat="59.95397" lon="17.7234052">
        <ele>52.0486</ele>
        <time>2012-09-16T11:52:21Z</time>
      </trkpt>
      <trkpt lat="59.9540638" lon="17.7232673">
        <ele>51.0872</ele>
        <time>2012-09-16T11:52:26Z</time>
      </trkpt>
      <trkpt lat="59.9541467" lon="17.723153">
        <ele>52.0486</ele>
        <time>2012-09-16T11:52:31Z</time>
      </trkpt>
      <trkpt lat="59.9542678" lon="17.7231477">
        <ele>51.0872</ele>
        <time>2012-09-16T11:52:36Z</time>
      </trkpt>
      <trkpt lat="59.9543428" lon="17.723196">
        <ele>51.5679</ele>
        <time>2012-09-16T11:52:40Z</time>
      </trkpt>
      <trkpt lat="59.9544269" lon="17.7232421">
        <ele>48.2034</ele>
        <time>2012-09-16T11:52:45Z</time>
      </trkpt>
      <trkpt lat="59.9545052" lon="17.7233121">
        <ele>45.7999</ele>
        <time>2012-09-16T11:52:49Z</time>
      </trkpt>
      <trkpt lat="59.954619" lon="17.7234072">
        <ele>46.7612</ele>
        <time>2012-09-16T11:52:54Z</time>
      </trkpt>
      <trkpt lat="59.9547233" lon="17.7234984">
        <ele>46.2806</ele>
        <time>2012-09-16T11:52:59Z</time>
      </trkpt>
      <trkpt lat="59.9548354" lon="17.723596">
        <ele>43.8773</ele>
        <time>2012-09-16T11:53:04Z</time>
      </trkpt>
      <trkpt lat="59.9549335" lon="17.7236264">
        <ele>47.7225</ele>
        <time>2012-09-16T11:53:09Z</time>
      </trkpt>
      <trkpt lat="59.9550248" lon="17.7235997">
        <ele>48.684</ele>
        <time>2012-09-16T11:53:13Z</time>
      </trkpt>
      <trkpt lat="59.9551057" lon="17.7235092">
        <ele>51.0872</ele>
        <time>2012-09-16T11:53:17Z</time>
      </trkpt>
      <trkpt lat="59.9552255" lon="17.7233892">
        <ele>53.9712</ele>
        <time>2012-09-16T11:53:23Z</time>
      </trkpt>
      <trkpt lat="59.95538" lon="17.7233424">
        <ele>53.9712</ele>
        <time>2012-09-16T11:53:30Z</time>
      </trkpt>
      <trkpt lat="59.955493" lon="17.7233727">
        <ele>51.0872</ele>
        <time>2012-09-16T11:53:35Z</time>
      </trkpt>
      <trkpt lat="59.9555685" lon="17.7234077">
        <ele>50.6066</ele>
        <time>2012-09-16T11:53:39Z</time>
      </trkpt>
      <trkpt lat="59.9557022" lon="17.7235266">
        <ele>50.6066</ele>
        <time>2012-09-16T11:53:45Z</time>
      </trkpt>
      <trkpt lat="59.9557826" lon="17.7236145">
        <ele>50.6066</ele>
        <time>2012-09-16T11:53:50Z</time>
      </trkpt>
      <trkpt lat="59.9558737" lon="17.7236499">
        <ele>50.126</ele>
        <time>2012-09-16T11:53:54Z</time>
      </trkpt>
      <trkpt lat="59.9559441" lon="17.7235958">
        <ele>50.6066</ele>
        <time>2012-09-16T11:53:57Z</time>
      </trkpt>
      <trkpt lat="59.956015" lon="17.7234123">
        <ele>52.5292</ele>
        <time>2012-09-16T11:54:02Z</time>
      </trkpt>
      <trkpt lat="59.9560575" lon="17.7232487">
        <ele>52.5292</ele>
        <time>2012-09-16T11:54:06Z</time>
      </trkpt>
      <trkpt lat="59.9560809" lon="17.7230474">
        <ele>53.4905</ele>
        <time>2012-09-16T11:54:11Z</time>
      </trkpt>
      <trkpt lat="59.956084" lon="17.7229965">
        <ele>53.0098</ele>
        <time>2012-09-16T11:54:12Z</time>
      </trkpt>
      <trkpt lat="59.9560478" lon="17.722764">
        <ele>54.9324</ele>
        <time>2012-09-16T11:54:18Z</time>
      </trkpt>
      <trkpt lat="59.9560022" lon="17.7224588">
        <ele>57.8165</ele>
        <time>2012-09-16T11:54:25Z</time>
      </trkpt>
      <trkpt lat="59.9559893" lon="17.7224154">
        <ele>57.3358</ele>
        <time>2012-09-16T11:54:26Z</time>
      </trkpt>
      <trkpt lat="59.9559862" lon="17.7222875">
        <ele>58.7777</ele>
        <time>2012-09-16T11:54:29Z</time>
      </trkpt>
      <trkpt lat="59.9559411" lon="17.7220047">
        <ele>61.6617</ele>
        <time>2012-09-16T11:54:35Z</time>
      </trkpt>
      <trkpt lat="59.95595" lon="17.7218041">
        <ele>63.5844</ele>
        <time>2012-09-16T11:54:39Z</time>
      </trkpt>
      <trkpt lat="59.9559845" lon="17.7216421">
        <ele>65.9877</ele>
        <time>2012-09-16T11:54:43Z</time>
      </trkpt>
      <trkpt lat="59.95603" lon="17.7214413">
        <ele>64.5457</ele>
        <time>2012-09-16T11:54:48Z</time>
      </trkpt>
      <trkpt lat="59.9560067" lon="17.7213524">
        <ele>63.1036</ele>
        <time>2012-09-16T11:54:50Z</time>
      </trkpt>
      <trkpt lat="59.9558417" lon="17.7212639">
        <ele>61.181</ele>
        <time>2012-09-16T11:54:56Z</time>
      </trkpt>
      <trkpt lat="59.9557593" lon="17.7212539">
        <ele>62.1423</ele>
        <time>2012-09-16T11:55:00Z</time>
      </trkpt>
      <trkpt lat="59.9556805" lon="17.7213493">
        <ele>63.5844</ele>
        <time>2012-09-16T11:55:05Z</time>
      </trkpt>
      <trkpt lat="59.9556085" lon="17.7213913">
        <ele>62.1423</ele>
        <time>2012-09-16T11:55:09Z</time>
      </trkpt>
      <trkpt lat="59.9555008" lon="17.721409">
        <ele>61.181</ele>
        <time>2012-09-16T11:55:14Z</time>
      </trkpt>
      <trkpt lat="59.9554416" lon="17.7214455">
        <ele>62.1423</ele>
        <time>2012-09-16T11:55:16Z</time>
      </trkpt>
      <trkpt lat="59.9553035" lon="17.7214088">
        <ele>62.1423</ele>
        <time>2012-09-16T11:55:21Z</time>
      </trkpt>
      <trkpt lat="59.9551936" lon="17.7214159">
        <ele>64.0651</ele>
        <time>2012-09-16T11:55:25Z</time>
      </trkpt>
      <trkpt lat="59.9551199" lon="17.7213898">
        <ele>63.5844</ele>
        <time>2012-09-16T11:55:29Z</time>
      </trkpt>
      <trkpt lat="59.95501" lon="17.7213618">
        <ele>63.5844</ele>
        <time>2012-09-16T11:55:36Z</time>
      </trkpt>
      <trkpt lat="59.9549361" lon="17.7213431">
        <ele>63.1036</ele>
        <time>2012-09-16T11:55:41Z</time>
      </trkpt>
      <trkpt lat="59.9548244" lon="17.7212285">
        <ele>61.6617</ele>
        <time>2012-09-16T11:55:46Z</time>
      </trkpt>
      <trkpt lat="59.9547657" lon="17.7209982">
        <ele>58.7777</ele>
        <time>2012-09-16T11:55:51Z</time>
      </trkpt>
      <trkpt lat="59.9547868" lon="17.7207645">
        <ele>57.3358</ele>
        <time>2012-09-16T11:55:56Z</time>
      </trkpt>
      <trkpt lat="59.9547967" lon="17.7206682">
        <ele>56.8551</ele>
        <time>2012-09-16T11:55:58Z</time>
      </trkpt>
      <trkpt lat="59.954913" lon="17.7204163">
        <ele>57.3358</ele>
        <time>2012-09-16T11:56:05Z</time>
      </trkpt>
      <trkpt lat="59.9549551" lon="17.7203781">
        <ele>57.3358</ele>
        <time>2012-09-16T11:56:07Z</time>
      </trkpt>
      <trkpt lat="59.9550211" lon="17.7202544">
        <ele>59.2584</ele>
        <time>2012-09-16T11:56:11Z</time>
      </trkpt>
      <trkpt lat="59.9551022" lon="17.7201074">
        <ele>62.6229</ele>
        <time>2012-09-16T11:56:16Z</time>
      </trkpt>
      <trkpt lat="59.9552001" lon="17.7200076">
        <ele>63.5844</ele>
        <time>2012-09-16T11:56:21Z</time>
      </trkpt>
      <trkpt lat="59.9552714" lon="17.7199346">
        <ele>65.0264</ele>
        <time>2012-09-16T11:56:24Z</time>
      </trkpt>
      <trkpt lat="59.9553623" lon="17.7198512">
        <ele>67.4297</ele>
        <time>2012-09-16T11:56:29Z</time>
      </trkpt>
      <trkpt lat="59.9554519" lon="17.7197543">
        <ele>67.9103</ele>
        <time>2012-09-16T11:56:33Z</time>
      </trkpt>
      <trkpt lat="59.9555785" lon="17.7197192">
        <ele>66.4683</ele>
        <time>2012-09-16T11:56:39Z</time>
      </trkpt>
      <trkpt lat="59.9556943" lon="17.7196264">
        <ele>64.0651</ele>
        <time>2012-09-16T11:56:45Z</time>
      </trkpt>
      <trkpt lat="59.9557822" lon="17.7194753">
        <ele>63.5844</ele>
        <time>2012-09-16T11:56:50Z</time>
      </trkpt>
      <trkpt lat="59.9558033" lon="17.7194473">
        <ele>63.1036</ele>
        <time>2012-09-16T11:56:51Z</time>
      </trkpt>
      <trkpt lat="59.9559265" lon="17.719371">
        <ele>61.181</ele>
        <time>2012-09-16T11:56:57Z</time>
      </trkpt>
      <trkpt lat="59.9560075" lon="17.7192711">
        <ele>60.7003</ele>
        <time>2012-09-16T11:57:01Z</time>
      </trkpt>
      <trkpt lat="59.9560896" lon="17.7191116">
        <ele>61.6617</ele>
        <time>2012-09-16T11:57:05Z</time>
      </trkpt>
      <trkpt lat="59.9561809" lon="17.7189914">
        <ele>60.7003</ele>
        <time>2012-09-16T11:57:10Z</time>
      </trkpt>
      <trkpt lat="59.9562378" lon="17.7188624">
        <ele>59.2584</ele>
        <time>2012-09-16T11:57:14Z</time>
      </trkpt>
      <trkpt lat="59.9562411" lon="17.718796">
        <ele>56.8551</ele>
        <time>2012-09-16T11:57:16Z</time>
      </trkpt>
      <trkpt lat="59.9562258" lon="17.7185381">
        <ele>54.9324</ele>
        <time>2012-09-16T11:57:22Z</time>
      </trkpt>
      <trkpt lat="59.9561634" lon="17.718349">
        <ele>52.5292</ele>
        <time>2012-09-16T11:57:27Z</time>
      </trkpt>
      <trkpt lat="59.9560956" lon="17.7182079">
        <ele>51.0872</ele>
        <time>2012-09-16T11:57:31Z</time>
      </trkpt>
      <trkpt lat="59.9560054" lon="17.7180288">
        <ele>51.5679</ele>
        <time>2012-09-16T11:57:36Z</time>
      </trkpt>
      <trkpt lat="59.955938" lon="17.7179373">
        <ele>51.5679</ele>
        <time>2012-09-16T11:57:39Z</time>
      </trkpt>
      <trkpt lat="59.955894" lon="17.7178797">
        <ele>52.0486</ele>
        <time>2012-09-16T11:57:41Z</time>
      </trkpt>
      <trkpt lat="59.9557878" lon="17.7176811">
        <ele>52.5292</ele>
        <time>2012-09-16T11:57:46Z</time>
      </trkpt>
      <trkpt lat="59.9557251" lon="17.7175435">
        <ele>52.5292</ele>
        <time>2012-09-16T11:57:50Z</time>
      </trkpt>
      <trkpt lat="59.9556563" lon="17.717417">
        <ele>52.5292</ele>
        <time>2012-09-16T11:57:54Z</time>
      </trkpt>
      <trkpt lat="59.9556276" lon="17.7172349">
        <ele>50.6066</ele>
        <time>2012-09-16T11:57:58Z</time>
      </trkpt>
      <trkpt lat="59.9555759" lon="17.7170166">
        <ele>49.6453</ele>
        <time>2012-09-16T11:58:04Z</time>
      </trkpt>
      <trkpt lat="59.9555624" lon="17.7169861">
        <ele>49.1646</ele>
        <time>2012-09-16T11:58:05Z</time>
      </trkpt>
      <trkpt lat="59.9555729" lon="17.7167924">
        <ele>50.126</ele>
        <time>2012-09-16T11:58:10Z</time>
      </trkpt>
      <trkpt lat="59.9555624" lon="17.7165845">
        <ele>50.126</ele>
        <time>2012-09-16T11:58:14Z</time>
      </trkpt>
      <trkpt lat="59.9555546" lon="17.7163964">
        <ele>51.5679</ele>
        <time>2012-09-16T11:58:18Z</time>
      </trkpt>
      <trkpt lat="59.9555495" lon="17.7163168">
        <ele>52.0486</ele>
        <time>2012-09-16T11:58:20Z</time>
      </trkpt>
      <trkpt lat="59.955506" lon="17.7160277">
        <ele>53.0098</ele>
        <time>2012-09-16T11:58:26Z</time>
      </trkpt>
      <trkpt lat="59.9554879" lon="17.7157885">
        <ele>50.6066</ele>
        <time>2012-09-16T11:58:31Z</time>
      </trkpt>
      <trkpt lat="59.9554675" lon="17.715545">
        <ele>51.0872</ele>
        <time>2012-09-16T11:58:36Z</time>
      </trkpt>
      <trkpt lat="59.9554625" lon="17.7154813">
        <ele>50.6066</ele>
        <time>2012-09-16T11:58:38Z</time>
      </trkpt>
      <trkpt lat="59.95542" lon="17.7152133">
        <ele>48.684</ele>
        <time>2012-09-16T11:58:43Z</time>
      </trkpt>
      <trkpt lat="59.9553703" lon="17.7150571">
        <ele>48.2034</ele>
        <time>2012-09-16T11:58:47Z</time>
      </trkpt>
      <trkpt lat="59.9553169" lon="17.714855">
        <ele>48.2034</ele>
        <time>2012-09-16T11:58:52Z</time>
      </trkpt>
      <trkpt lat="59.9552936" lon="17.71476">
        <ele>48.2034</ele>
        <time>2012-09-16T11:58:54Z</time>
      </trkpt>
      <trkpt lat="59.9552313" lon="17.7144581">
        <ele>46.2806</ele>
        <time>2012-09-16T11:59:00Z</time>
      </trkpt>
      <trkpt lat="59.9551932" lon="17.7142392">
        <ele>43.8773</ele>
        <time>2012-09-16T11:59:05Z</time>
      </trkpt>
      <trkpt lat="59.9551448" lon="17.7141465">
        <ele>43.3966</ele>
        <time>2012-09-16T11:59:08Z</time>
      </trkpt>
      <trkpt lat="59.9550546" lon="17.7143169">
        <ele>40.5128</ele>
        <time>2012-09-16T11:59:13Z</time>
      </trkpt>
      <trkpt lat="59.9549697" lon="17.7144245">
        <ele>40.9934</ele>
        <time>2012-09-16T11:59:17Z</time>
      </trkpt>
      <trkpt lat="59.9549387" lon="17.7144944">
        <ele>40.9934</ele>
        <time>2012-09-16T11:59:19Z</time>
      </trkpt>
      <trkpt lat="59.9548471" lon="17.7146851">
        <ele>40.5128</ele>
        <time>2012-09-16T11:59:25Z</time>
      </trkpt>
      <trkpt lat="59.9548247" lon="17.7147173">
        <ele>39.5513</ele>
        <time>2012-09-16T11:59:26Z</time>
      </trkpt>
      <trkpt lat="59.9546844" lon="17.7147981">
        <ele>40.5128</ele>
        <time>2012-09-16T11:59:31Z</time>
      </trkpt>
      <trkpt lat="59.9545673" lon="17.7148188">
        <ele>43.3966</ele>
        <time>2012-09-16T11:59:36Z</time>
      </trkpt>
      <trkpt lat="59.9544891" lon="17.7148425">
        <ele>45.3192</ele>
        <time>2012-09-16T11:59:40Z</time>
      </trkpt>
      <trkpt lat="59.9544289" lon="17.7148305">
        <ele>47.7225</ele>
        <time>2012-09-16T11:59:44Z</time>
      </trkpt>
      <trkpt lat="59.9543285" lon="17.714836">
        <ele>49.1646</ele>
        <time>2012-09-16T11:59:48Z</time>
      </trkpt>
      <trkpt lat="59.9542447" lon="17.71484">
        <ele>51.5679</ele>
        <time>2012-09-16T11:59:54Z</time>
      </trkpt>
      <trkpt lat="59.9542317" lon="17.7148462">
        <ele>51.5679</ele>
        <time>2012-09-16T11:59:55Z</time>
      </trkpt>
      <trkpt lat="59.9541722" lon="17.7148783">
        <ele>51.5679</ele>
        <time>2012-09-16T11:59:59Z</time>
      </trkpt>
      <trkpt lat="59.9540809" lon="17.7148814">
        <ele>51.5679</ele>
        <time>2012-09-16T12:00:04Z</time>
      </trkpt>
      <trkpt lat="59.9540274" lon="17.7148948">
        <ele>52.0486</ele>
        <time>2012-09-16T12:00:06Z</time>
      </trkpt>
      <trkpt lat="59.9539417" lon="17.7149395">
        <ele>53.4905</ele>
        <time>2012-09-16T12:00:10Z</time>
      </trkpt>
      <trkpt lat="59.9539172" lon="17.7149561">
        <ele>53.4905</ele>
        <time>2012-09-16T12:00:11Z</time>
      </trkpt>
      <trkpt lat="59.9538063" lon="17.7149828">
        <ele>55.4131</ele>
        <time>2012-09-16T12:00:16Z</time>
      </trkpt>
      <trkpt lat="59.9536612" lon="17.7150696">
        <ele>57.3358</ele>
        <time>2012-09-16T12:00:21Z</time>
      </trkpt>
      <trkpt lat="59.9536219" lon="17.7151234">
        <ele>58.2971</ele>
        <time>2012-09-16T12:00:23Z</time>
      </trkpt>
      <trkpt lat="59.9535007" lon="17.7152327">
        <ele>59.2584</ele>
        <time>2012-09-16T12:00:28Z</time>
      </trkpt>
      <trkpt lat="59.9534545" lon="17.7152844">
        <ele>60.7003</ele>
        <time>2012-09-16T12:00:30Z</time>
      </trkpt>
      <trkpt lat="59.9534123" lon="17.7153694">
        <ele>59.7391</ele>
        <time>2012-09-16T12:00:34Z</time>
      </trkpt>
      <trkpt lat="59.9532914" lon="17.7155533">
        <ele>55.8938</ele>
        <time>2012-09-16T12:00:41Z</time>
      </trkpt>
      <trkpt lat="59.9531946" lon="17.7157149">
        <ele>52.0486</ele>
        <time>2012-09-16T12:00:47Z</time>
      </trkpt>
      <trkpt lat="59.9530931" lon="17.715832">
        <ele>46.2806</ele>
        <time>2012-09-16T12:00:52Z</time>
      </trkpt>
      <trkpt lat="59.9530346" lon="17.7159723">
        <ele>40.9934</ele>
        <time>2012-09-16T12:00:57Z</time>
      </trkpt>
      <trkpt lat="59.9529682" lon="17.7161479">
        <ele>36.1868</ele>
        <time>2012-09-16T12:01:02Z</time>
      </trkpt>
      <trkpt lat="59.9529272" lon="17.7163324">
        <ele>31.3801</ele>
        <time>2012-09-16T12:01:07Z</time>
      </trkpt>
      <trkpt lat="59.9528926" lon="17.7165928">
        <ele>30.8995</ele>
        <time>2012-09-16T12:01:13Z</time>
      </trkpt>
      <trkpt lat="59.952895" lon="17.7166867">
        <ele>31.8607</ele>
        <time>2012-09-16T12:01:15Z</time>
      </trkpt>
      <trkpt lat="59.952908" lon="17.7168987">
        <ele>31.8607</ele>
        <time>2012-09-16T12:01:20Z</time>
      </trkpt>
      <trkpt lat="59.9528906" lon="17.7170189">
        <ele>31.8607</ele>
        <time>2012-09-16T12:01:23Z</time>
      </trkpt>
      <trkpt lat="59.9528684" lon="17.7172508">
        <ele>36.1868</ele>
        <time>2012-09-16T12:01:28Z</time>
      </trkpt>
      <trkpt lat="59.9527984" lon="17.7175291">
        <ele>40.0321</ele>
        <time>2012-09-16T12:01:34Z</time>
      </trkpt>
      <trkpt lat="59.9527403" lon="17.7177365">
        <ele>39.0707</ele>
        <time>2012-09-16T12:01:39Z</time>
      </trkpt>
      <trkpt lat="59.9526657" lon="17.717892">
        <ele>38.1094</ele>
        <time>2012-09-16T12:01:44Z</time>
      </trkpt>
      <trkpt lat="59.9526368" lon="17.7179538">
        <ele>37.1481</ele>
        <time>2012-09-16T12:01:46Z</time>
      </trkpt>
      <trkpt lat="59.952574" lon="17.71814">
        <ele>39.0707</ele>
        <time>2012-09-16T12:01:51Z</time>
      </trkpt>
      <trkpt lat="59.9525377" lon="17.7183567">
        <ele>40.0321</ele>
        <time>2012-09-16T12:01:56Z</time>
      </trkpt>
      <trkpt lat="59.9524942" lon="17.7185664">
        <ele>41.9547</ele>
        <time>2012-09-16T12:02:01Z</time>
      </trkpt>
      <trkpt lat="59.9524459" lon="17.7187498">
        <ele>43.8773</ele>
        <time>2012-09-16T12:02:06Z</time>
      </trkpt>
      <trkpt lat="59.9524226" lon="17.7189638">
        <ele>47.2418</ele>
        <time>2012-09-16T12:02:11Z</time>
      </trkpt>
      <trkpt lat="59.9523662" lon="17.7191964">
        <ele>46.2806</ele>
        <time>2012-09-16T12:02:16Z</time>
      </trkpt>
      <trkpt lat="59.9523461" lon="17.7193965">
        <ele>45.3192</ele>
        <time>2012-09-16T12:02:20Z</time>
      </trkpt>
      <trkpt lat="59.9523658" lon="17.7196662">
        <ele>47.2418</ele>
        <time>2012-09-16T12:02:25Z</time>
      </trkpt>
      <trkpt lat="59.9524192" lon="17.7198389">
        <ele>47.7225</ele>
        <time>2012-09-16T12:02:30Z</time>
      </trkpt>
      <trkpt lat="59.9524886" lon="17.7200574">
        <ele>50.126</ele>
        <time>2012-09-16T12:02:35Z</time>
      </trkpt>
      <trkpt lat="59.9525225" lon="17.720301">
        <ele>51.0872</ele>
        <time>2012-09-16T12:02:40Z</time>
      </trkpt>
      <trkpt lat="59.9525429" lon="17.7203896">
        <ele>53.0098</ele>
        <time>2012-09-16T12:02:42Z</time>
      </trkpt>
      <trkpt lat="59.9525357" lon="17.7206439">
        <ele>55.8938</ele>
        <time>2012-09-16T12:02:47Z</time>
      </trkpt>
      <trkpt lat="59.9525433" lon="17.7206809">
        <ele>55.8938</ele>
        <time>2012-09-16T12:02:48Z</time>
      </trkpt>
      <trkpt lat="59.9525414" lon="17.7209378">
        <ele>59.2584</ele>
        <time>2012-09-16T12:02:54Z</time>
      </trkpt>
      <trkpt lat="59.9525606" lon="17.7212022">
        <ele>60.7003</ele>
        <time>2012-09-16T12:03:00Z</time>
      </trkpt>
      <trkpt lat="59.9525465" lon="17.7214704">
        <ele>57.8165</ele>
        <time>2012-09-16T12:03:06Z</time>
      </trkpt>
      <trkpt lat="59.9525585" lon="17.7217366">
        <ele>58.2971</ele>
        <time>2012-09-16T12:03:11Z</time>
      </trkpt>
      <trkpt lat="59.9526144" lon="17.7219772">
        <ele>59.7391</ele>
        <time>2012-09-16T12:03:16Z</time>
      </trkpt>
      <trkpt lat="59.9526113" lon="17.7221878">
        <ele>55.8938</ele>
        <time>2012-09-16T12:03:21Z</time>
      </trkpt>
      <trkpt lat="59.9525709" lon="17.7223527">
        <ele>53.0098</ele>
        <time>2012-09-16T12:03:25Z</time>
      </trkpt>
      <trkpt lat="59.9525104" lon="17.7225633">
        <ele>51.0872</ele>
        <time>2012-09-16T12:03:30Z</time>
      </trkpt>
      <trkpt lat="59.9524741" lon="17.7227201">
        <ele>50.126</ele>
        <time>2012-09-16T12:03:34Z</time>
      </trkpt>
      <trkpt lat="59.9524643" lon="17.7228287">
        <ele>49.1646</ele>
        <time>2012-09-16T12:03:37Z</time>
      </trkpt>
      <trkpt lat="59.9525076" lon="17.7227413">
        <ele>49.6453</ele>
        <time>2012-09-16T12:03:41Z</time>
      </trkpt>
      <trkpt lat="59.9525347" lon="17.7226117">
        <ele>53.4905</ele>
        <time>2012-09-16T12:03:44Z</time>
      </trkpt>
      <trkpt lat="59.9526073" lon="17.7223857">
        <ele>56.8551</ele>
        <time>2012-09-16T12:03:50Z</time>
      </trkpt>
      <trkpt lat="59.9527129" lon="17.7221762">
        <ele>62.6229</ele>
        <time>2012-09-16T12:03:55Z</time>
      </trkpt>
      <trkpt lat="59.952788" lon="17.721988">
        <ele>64.0651</ele>
        <time>2012-09-16T12:04:00Z</time>
      </trkpt>
      <trkpt lat="59.9528675" lon="17.7219001">
        <ele>65.0264</ele>
        <time>2012-09-16T12:04:04Z</time>
      </trkpt>
      <trkpt lat="59.9529916" lon="17.7217849">
        <ele>68.3909</ele>
        <time>2012-09-16T12:04:09Z</time>
      </trkpt>
      <trkpt lat="59.9530765" lon="17.7216865">
        <ele>72.2362</ele>
        <time>2012-09-16T12:04:13Z</time>
      </trkpt>
      <trkpt lat="59.9531299" lon="17.7214911">
        <ele>75.6008</ele>
        <time>2012-09-16T12:04:18Z</time>
      </trkpt>
      <trkpt lat="59.9531837" lon="17.7213881">
        <ele>72.2362</ele>
        <time>2012-09-16T12:04:22Z</time>
      </trkpt>
      <trkpt lat="59.953225" lon="17.72126">
        <ele>68.8716</ele>
        <time>2012-09-16T12:04:26Z</time>
      </trkpt>
      <trkpt lat="59.9532946" lon="17.7211122">
        <ele>64.5457</ele>
        <time>2012-09-16T12:04:31Z</time>
      </trkpt>
      <trkpt lat="59.953346" lon="17.7208189">
        <ele>60.2197</ele>
        <time>2012-09-16T12:04:37Z</time>
      </trkpt>
      <trkpt lat="59.9533892" lon="17.7205479">
        <ele>55.4131</ele>
        <time>2012-09-16T12:04:43Z</time>
      </trkpt>
      <trkpt lat="59.9533962" lon="17.7203545">
        <ele>51.5679</ele>
        <time>2012-09-16T12:04:47Z</time>
      </trkpt>
      <trkpt lat="59.953451" lon="17.7201429">
        <ele>47.2418</ele>
        <time>2012-09-16T12:04:52Z</time>
      </trkpt>
      <trkpt lat="59.9534706" lon="17.7200569">
        <ele>46.7612</ele>
        <time>2012-09-16T12:04:54Z</time>
      </trkpt>
      <trkpt lat="59.9535318" lon="17.7198875">
        <ele>47.2418</ele>
        <time>2012-09-16T12:04:59Z</time>
      </trkpt>
      <trkpt lat="59.9535508" lon="17.7198247">
        <ele>47.2418</ele>
        <time>2012-09-16T12:05:01Z</time>
      </trkpt>
      <trkpt lat="59.9535671" lon="17.7197564">
        <ele>46.7612</ele>
        <time>2012-09-16T12:05:03Z</time>
      </trkpt>
      <trkpt lat="59.9536262" lon="17.7195751">
        <ele>46.7612</ele>
        <time>2012-09-16T12:05:08Z</time>
      </trkpt>
      <trkpt lat="59.9536418" lon="17.719504">
        <ele>46.7612</ele>
        <time>2012-09-16T12:05:10Z</time>
      </trkpt>
      <trkpt lat="59.9537077" lon="17.7192859">
        <ele>47.2418</ele>
        <time>2012-09-16T12:05:15Z</time>
      </trkpt>
      <trkpt lat="59.9537785" lon="17.7191245">
        <ele>49.1646</ele>
        <time>2012-09-16T12:05:20Z</time>
      </trkpt>
      <trkpt lat="59.9538557" lon="17.7189031">
        <ele>51.0872</ele>
        <time>2012-09-16T12:05:26Z</time>
      </trkpt>
      <trkpt lat="59.9539157" lon="17.7186765">
        <ele>52.0486</ele>
        <time>2012-09-16T12:05:32Z</time>
      </trkpt>
      <trkpt lat="59.9539206" lon="17.7185881">
        <ele>51.0872</ele>
        <time>2012-09-16T12:05:34Z</time>
      </trkpt>
      <trkpt lat="59.953982" lon="17.7182853">
        <ele>51.5679</ele>
        <time>2012-09-16T12:05:41Z</time>
      </trkpt>
      <trkpt lat="59.9539897" lon="17.718248">
        <ele>51.5679</ele>
        <time>2012-09-16T12:05:42Z</time>
      </trkpt>
      <trkpt lat="59.9540103" lon="17.7180171">
        <ele>51.5679</ele>
        <time>2012-09-16T12:05:47Z</time>
      </trkpt>
      <trkpt lat="59.954073" lon="17.7177832">
        <ele>49.6453</ele>
        <time>2012-09-16T12:05:53Z</time>
      </trkpt>
      <trkpt lat="59.9541483" lon="17.7175592">
        <ele>49.6453</ele>
        <time>2012-09-16T12:05:59Z</time>
      </trkpt>
      <trkpt lat="59.9542128" lon="17.7173931">
        <ele>48.684</ele>
        <time>2012-09-16T12:06:03Z</time>
      </trkpt>
      <trkpt lat="59.9543045" lon="17.7171891">
        <ele>48.2034</ele>
        <time>2012-09-16T12:06:09Z</time>
      </trkpt>
      <trkpt lat="59.9543554" lon="17.7169505">
        <ele>44.358</ele>
        <time>2012-09-16T12:06:15Z</time>
      </trkpt>
      <trkpt lat="59.954397" lon="17.7167374">
        <ele>40.0321</ele>
        <time>2012-09-16T12:06:20Z</time>
      </trkpt>
      <trkpt lat="59.9544346" lon="17.7165142">
        <ele>35.2255</ele>
        <time>2012-09-16T12:06:25Z</time>
      </trkpt>
      <trkpt lat="59.9544471" lon="17.7163501">
        <ele>32.3416</ele>
        <time>2012-09-16T12:06:29Z</time>
      </trkpt>
      <trkpt lat="59.9544834" lon="17.7161713">
        <ele>29.9381</ele>
        <time>2012-09-16T12:06:34Z</time>
      </trkpt>
      <trkpt lat="59.9545206" lon="17.7159494">
        <ele>27.0543</ele>
        <time>2012-09-16T12:06:39Z</time>
      </trkpt>
      <trkpt lat="59.9545537" lon="17.7158056">
        <ele>30.4188</ele>
        <time>2012-09-16T12:06:42Z</time>
      </trkpt>
      <trkpt lat="59.9545625" lon="17.7155953">
        <ele>30.4188</ele>
        <time>2012-09-16T12:06:47Z</time>
      </trkpt>
      <trkpt lat="59.9545928" lon="17.7154265">
        <ele>34.7449</ele>
        <time>2012-09-16T12:06:51Z</time>
      </trkpt>
      <trkpt lat="59.9546201" lon="17.7151722">
        <ele>37.6287</ele>
        <time>2012-09-16T12:06:56Z</time>
      </trkpt>
      <trkpt lat="59.9546251" lon="17.7151299">
        <ele>36.1868</ele>
        <time>2012-09-16T12:06:57Z</time>
      </trkpt>
      <trkpt lat="59.954683" lon="17.714941">
        <ele>34.2642</ele>
        <time>2012-09-16T12:07:02Z</time>
      </trkpt>
      <trkpt lat="59.9547187" lon="17.7148225">
        <ele>33.3029</ele>
        <time>2012-09-16T12:07:05Z</time>
      </trkpt>
      <trkpt lat="59.954794" lon="17.7146126">
        <ele>30.8995</ele>
        <time>2012-09-16T12:07:11Z</time>
      </trkpt>
      <trkpt lat="59.9548919" lon="17.7144563">
        <ele>31.3801</ele>
        <time>2012-09-16T12:07:16Z</time>
      </trkpt>
      <trkpt lat="59.9549879" lon="17.7143439">
        <ele>37.6287</ele>
        <time>2012-09-16T12:07:20Z</time>
      </trkpt>
      <trkpt lat="59.9551033" lon="17.7142273">
        <ele>39.0707</ele>
        <time>2012-09-16T12:07:25Z</time>
      </trkpt>
      <trkpt lat="59.9551485" lon="17.7142054">
        <ele>40.9934</ele>
        <time>2012-09-16T12:07:27Z</time>
      </trkpt>
      <trkpt lat="59.9552221" lon="17.7140044">
        <ele>38.5901</ele>
        <time>2012-09-16T12:07:33Z</time>
      </trkpt>
      <trkpt lat="59.9552594" lon="17.7139874">
        <ele>39.0707</ele>
        <time>2012-09-16T12:07:35Z</time>
      </trkpt>
      <trkpt lat="59.9553165" lon="17.7140966">
        <ele>38.5901</ele>
        <time>2012-09-16T12:07:39Z</time>
      </trkpt>
      <trkpt lat="59.9553687" lon="17.7142365">
        <ele>39.5513</ele>
        <time>2012-09-16T12:07:42Z</time>
      </trkpt>
      <trkpt lat="59.9554633" lon="17.7145039">
        <ele>41.9547</ele>
        <time>2012-09-16T12:07:48Z</time>
      </trkpt>
      <trkpt lat="59.9555344" lon="17.7146986">
        <ele>43.3966</ele>
        <time>2012-09-16T12:07:52Z</time>
      </trkpt>
      <trkpt lat="59.9555819" lon="17.7148742">
        <ele>44.8386</ele>
        <time>2012-09-16T12:07:56Z</time>
      </trkpt>
      <trkpt lat="59.9555909" lon="17.7149239">
        <ele>45.7999</ele>
        <time>2012-09-16T12:07:57Z</time>
      </trkpt>
    </trkseg>
  </trk>
</gpx>